<?xml version="1.0" encoding="UTF-8" standalone="no" ?>
<gpx xmlns="http://www.topografix.com/GPX/1/1" xmlns:xsi="http://www.w3.org/2001/XMLSchema-instance" xsi:schemaLocation="http://www.topografix.com/GPX/1/1 http://www.topografix.com/GPX/1/1/gpx.xsd" version="1.1" creator="VisuGPX - https://www.visugpx.com">
  <metadata>
    <name>Evening Ride</name>
  </metadata>
  <trk>
    <name><![CDATA[Evening Ride]]></name>
    <trkseg>
      <trkpt lat="46.25123" lon="6.6088">
        <ele>1033.5</ele>
        <time>2022-08-15T16:59:01Z</time>
      </trkpt>
      <trkpt lat="46.25123" lon="6.6088">
        <ele>1033.5</ele>
        <time>2022-08-15T16:59:06Z</time>
      </trkpt>
      <trkpt lat="46.2514" lon="6.60919">
        <ele>1030.5</ele>
        <time>2022-08-15T16:59:11Z</time>
      </trkpt>
      <trkpt lat="46.25175" lon="6.6097">
        <ele>1025.7</ele>
        <time>2022-08-15T16:59:16Z</time>
      </trkpt>
      <trkpt lat="46.25234" lon="6.61008">
        <ele>1020.4</ele>
        <time>2022-08-15T16:59:21Z</time>
      </trkpt>
      <trkpt lat="46.25268" lon="6.61081">
        <ele>1015.4</ele>
        <time>2022-08-15T16:59:26Z</time>
      </trkpt>
      <trkpt lat="46.25298" lon="6.61168">
        <ele>1009.9</ele>
        <time>2022-08-15T16:59:31Z</time>
      </trkpt>
      <trkpt lat="46.2533" lon="6.61255">
        <ele>1003.8</ele>
        <time>2022-08-15T16:59:36Z</time>
      </trkpt>
      <trkpt lat="46.25362" lon="6.61338">
        <ele>998</ele>
        <time>2022-08-15T16:59:41Z</time>
      </trkpt>
      <trkpt lat="46.2541" lon="6.61399">
        <ele>991.9</ele>
        <time>2022-08-15T16:59:46Z</time>
      </trkpt>
      <trkpt lat="46.25457" lon="6.61462">
        <ele>986</ele>
        <time>2022-08-15T16:59:51Z</time>
      </trkpt>
      <trkpt lat="46.2552" lon="6.61504">
        <ele>981.1</ele>
        <time>2022-08-15T16:59:56Z</time>
      </trkpt>
      <trkpt lat="46.25585" lon="6.61527">
        <ele>980.8</ele>
        <time>2022-08-15T17:00:01Z</time>
      </trkpt>
      <trkpt lat="46.25646" lon="6.61567">
        <ele>974.5</ele>
        <time>2022-08-15T17:00:06Z</time>
      </trkpt>
      <trkpt lat="46.25701" lon="6.61623">
        <ele>967.6</ele>
        <time>2022-08-15T17:00:11Z</time>
      </trkpt>
      <trkpt lat="46.25755" lon="6.61671">
        <ele>967.4</ele>
        <time>2022-08-15T17:00:16Z</time>
      </trkpt>
      <trkpt lat="46.25811" lon="6.61702">
        <ele>959.3</ele>
        <time>2022-08-15T17:00:21Z</time>
      </trkpt>
      <trkpt lat="46.25848" lon="6.61719">
        <ele>954.7</ele>
        <time>2022-08-15T17:00:26Z</time>
      </trkpt>
      <trkpt lat="46.25821" lon="6.61733">
        <ele>950.2</ele>
        <time>2022-08-15T17:00:31Z</time>
      </trkpt>
      <trkpt lat="46.25777" lon="6.61741">
        <ele>948.2</ele>
        <time>2022-08-15T17:00:36Z</time>
      </trkpt>
      <trkpt lat="46.25727" lon="6.61749">
        <ele>944.8</ele>
        <time>2022-08-15T17:00:41Z</time>
      </trkpt>
      <trkpt lat="46.25675" lon="6.61755">
        <ele>938.4</ele>
        <time>2022-08-15T17:00:46Z</time>
      </trkpt>
      <trkpt lat="46.25621" lon="6.61742">
        <ele>933</ele>
        <time>2022-08-15T17:00:51Z</time>
      </trkpt>
      <trkpt lat="46.25566" lon="6.61718">
        <ele>927.4</ele>
        <time>2022-08-15T17:00:56Z</time>
      </trkpt>
      <trkpt lat="46.25506" lon="6.61722">
        <ele>922.2</ele>
        <time>2022-08-15T17:01:01Z</time>
      </trkpt>
      <trkpt lat="46.25445" lon="6.6173">
        <ele>917</ele>
        <time>2022-08-15T17:01:06Z</time>
      </trkpt>
      <trkpt lat="46.25378" lon="6.61715">
        <ele>911.2</ele>
        <time>2022-08-15T17:01:11Z</time>
      </trkpt>
      <trkpt lat="46.25312" lon="6.61704">
        <ele>905.1</ele>
        <time>2022-08-15T17:01:16Z</time>
      </trkpt>
      <trkpt lat="46.25251" lon="6.61658">
        <ele>898.4</ele>
        <time>2022-08-15T17:01:21Z</time>
      </trkpt>
      <trkpt lat="46.25198" lon="6.61595">
        <ele>892.4</ele>
        <time>2022-08-15T17:01:26Z</time>
      </trkpt>
      <trkpt lat="46.25147" lon="6.61526">
        <ele>887.6</ele>
        <time>2022-08-15T17:01:31Z</time>
      </trkpt>
      <trkpt lat="46.25103" lon="6.61479">
        <ele>884.6</ele>
        <time>2022-08-15T17:01:36Z</time>
      </trkpt>
      <trkpt lat="46.25078" lon="6.61504">
        <ele>880.7</ele>
        <time>2022-08-15T17:01:41Z</time>
      </trkpt>
      <trkpt lat="46.251" lon="6.61555">
        <ele>876</ele>
        <time>2022-08-15T17:01:46Z</time>
      </trkpt>
      <trkpt lat="46.25131" lon="6.61618">
        <ele>871.5</ele>
        <time>2022-08-15T17:01:51Z</time>
      </trkpt>
      <trkpt lat="46.25163" lon="6.61685">
        <ele>867.1</ele>
        <time>2022-08-15T17:01:56Z</time>
      </trkpt>
      <trkpt lat="46.25166" lon="6.61723">
        <ele>865.3</ele>
        <time>2022-08-15T17:02:01Z</time>
      </trkpt>
      <trkpt lat="46.25141" lon="6.61715">
        <ele>861.1</ele>
        <time>2022-08-15T17:02:06Z</time>
      </trkpt>
      <trkpt lat="46.25101" lon="6.61687">
        <ele>856.6</ele>
        <time>2022-08-15T17:02:11Z</time>
      </trkpt>
      <trkpt lat="46.25057" lon="6.61653">
        <ele>851.3</ele>
        <time>2022-08-15T17:02:16Z</time>
      </trkpt>
      <trkpt lat="46.25005" lon="6.61632">
        <ele>842.9</ele>
        <time>2022-08-15T17:02:21Z</time>
      </trkpt>
      <trkpt lat="46.24969" lon="6.61652">
        <ele>836.7</ele>
        <time>2022-08-15T17:02:26Z</time>
      </trkpt>
      <trkpt lat="46.24963" lon="6.61691">
        <ele>835.6</ele>
        <time>2022-08-15T17:02:31Z</time>
      </trkpt>
      <trkpt lat="46.24981" lon="6.61711">
        <ele>834.5</ele>
        <time>2022-08-15T17:02:36Z</time>
      </trkpt>
      <trkpt lat="46.25005" lon="6.61757">
        <ele>832.5</ele>
        <time>2022-08-15T17:02:41Z</time>
      </trkpt>
      <trkpt lat="46.25027" lon="6.61813">
        <ele>830.2</ele>
        <time>2022-08-15T17:02:46Z</time>
      </trkpt>
      <trkpt lat="46.25052" lon="6.61874">
        <ele>827.6</ele>
        <time>2022-08-15T17:02:51Z</time>
      </trkpt>
      <trkpt lat="46.25072" lon="6.61947">
        <ele>824.7</ele>
        <time>2022-08-15T17:02:56Z</time>
      </trkpt>
      <trkpt lat="46.25088" lon="6.6202">
        <ele>822.7</ele>
        <time>2022-08-15T17:03:01Z</time>
      </trkpt>
      <trkpt lat="46.25107" lon="6.62097">
        <ele>820.5</ele>
        <time>2022-08-15T17:03:06Z</time>
      </trkpt>
      <trkpt lat="46.25133" lon="6.62165">
        <ele>817.8</ele>
        <time>2022-08-15T17:03:11Z</time>
      </trkpt>
      <trkpt lat="46.25166" lon="6.62226">
        <ele>815.5</ele>
        <time>2022-08-15T17:03:16Z</time>
      </trkpt>
      <trkpt lat="46.25208" lon="6.62264">
        <ele>813.6</ele>
        <time>2022-08-15T17:03:21Z</time>
      </trkpt>
      <trkpt lat="46.25254" lon="6.6229">
        <ele>810.4</ele>
        <time>2022-08-15T17:03:26Z</time>
      </trkpt>
      <trkpt lat="46.25306" lon="6.62296">
        <ele>806.7</ele>
        <time>2022-08-15T17:03:31Z</time>
      </trkpt>
      <trkpt lat="46.25342" lon="6.62339">
        <ele>802</ele>
        <time>2022-08-15T17:03:36Z</time>
      </trkpt>
      <trkpt lat="46.25343" lon="6.62409">
        <ele>796.6</ele>
        <time>2022-08-15T17:03:41Z</time>
      </trkpt>
      <trkpt lat="46.25321" lon="6.62494">
        <ele>792</ele>
        <time>2022-08-15T17:03:46Z</time>
      </trkpt>
      <trkpt lat="46.25327" lon="6.62564">
        <ele>787.3</ele>
        <time>2022-08-15T17:03:51Z</time>
      </trkpt>
      <trkpt lat="46.25378" lon="6.62568">
        <ele>780</ele>
        <time>2022-08-15T17:03:56Z</time>
      </trkpt>
      <trkpt lat="46.25432" lon="6.6253">
        <ele>773.7</ele>
        <time>2022-08-15T17:04:01Z</time>
      </trkpt>
      <trkpt lat="46.25488" lon="6.62518">
        <ele>768</ele>
        <time>2022-08-15T17:04:06Z</time>
      </trkpt>
      <trkpt lat="46.25542" lon="6.62531">
        <ele>763.3</ele>
        <time>2022-08-15T17:04:11Z</time>
      </trkpt>
      <trkpt lat="46.25595" lon="6.62504">
        <ele>756.1</ele>
        <time>2022-08-15T17:04:16Z</time>
      </trkpt>
      <trkpt lat="46.2565" lon="6.62467">
        <ele>747.9</ele>
        <time>2022-08-15T17:04:21Z</time>
      </trkpt>
      <trkpt lat="46.25714" lon="6.62422">
        <ele>740</ele>
        <time>2022-08-15T17:04:26Z</time>
      </trkpt>
      <trkpt lat="46.25767" lon="6.62386">
        <ele>735.9</ele>
        <time>2022-08-15T17:04:31Z</time>
      </trkpt>
      <trkpt lat="46.25768" lon="6.62413">
        <ele>729.6</ele>
        <time>2022-08-15T17:04:36Z</time>
      </trkpt>
      <trkpt lat="46.25759" lon="6.62445">
        <ele>724.7</ele>
        <time>2022-08-15T17:04:41Z</time>
      </trkpt>
      <trkpt lat="46.2574" lon="6.62483">
        <ele>721.3</ele>
        <time>2022-08-15T17:04:46Z</time>
      </trkpt>
      <trkpt lat="46.25739" lon="6.62511">
        <ele>718.9</ele>
        <time>2022-08-15T17:04:51Z</time>
      </trkpt>
      <trkpt lat="46.25727" lon="6.6252">
        <ele>718.8</ele>
        <time>2022-08-15T17:04:56Z</time>
      </trkpt>
      <trkpt lat="46.25718" lon="6.62522">
        <ele>718</ele>
        <time>2022-08-15T17:05:01Z</time>
      </trkpt>
      <trkpt lat="46.257" lon="6.62528">
        <ele>719.3</ele>
        <time>2022-08-15T17:05:06Z</time>
      </trkpt>
      <trkpt lat="46.25668" lon="6.62539">
        <ele>719.5</ele>
        <time>2022-08-15T17:05:11Z</time>
      </trkpt>
      <trkpt lat="46.25636" lon="6.62564">
        <ele>719.2</ele>
        <time>2022-08-15T17:05:16Z</time>
      </trkpt>
      <trkpt lat="46.25621" lon="6.62611">
        <ele>718.8</ele>
        <time>2022-08-15T17:05:21Z</time>
      </trkpt>
      <trkpt lat="46.25626" lon="6.62662">
        <ele>718.3</ele>
        <time>2022-08-15T17:05:26Z</time>
      </trkpt>
      <trkpt lat="46.25635" lon="6.62713">
        <ele>718.2</ele>
        <time>2022-08-15T17:05:31Z</time>
      </trkpt>
      <trkpt lat="46.25619" lon="6.62764">
        <ele>718.2</ele>
        <time>2022-08-15T17:05:36Z</time>
      </trkpt>
      <trkpt lat="46.25593" lon="6.62805">
        <ele>718.5</ele>
        <time>2022-08-15T17:05:41Z</time>
      </trkpt>
      <trkpt lat="46.2557" lon="6.62842">
        <ele>718.8</ele>
        <time>2022-08-15T17:05:46Z</time>
      </trkpt>
      <trkpt lat="46.25549" lon="6.62877">
        <ele>719</ele>
        <time>2022-08-15T17:05:51Z</time>
      </trkpt>
      <trkpt lat="46.25527" lon="6.62903">
        <ele>719.6</ele>
        <time>2022-08-15T17:05:56Z</time>
      </trkpt>
      <trkpt lat="46.255" lon="6.62916">
        <ele>720.3</ele>
        <time>2022-08-15T17:06:01Z</time>
      </trkpt>
      <trkpt lat="46.25469" lon="6.62923">
        <ele>721.3</ele>
        <time>2022-08-15T17:06:06Z</time>
      </trkpt>
      <trkpt lat="46.25438" lon="6.62927">
        <ele>722.2</ele>
        <time>2022-08-15T17:06:11Z</time>
      </trkpt>
      <trkpt lat="46.25409" lon="6.62929">
        <ele>723</ele>
        <time>2022-08-15T17:06:16Z</time>
      </trkpt>
      <trkpt lat="46.25383" lon="6.62935">
        <ele>723.6</ele>
        <time>2022-08-15T17:06:21Z</time>
      </trkpt>
      <trkpt lat="46.25358" lon="6.62952">
        <ele>724.1</ele>
        <time>2022-08-15T17:06:26Z</time>
      </trkpt>
      <trkpt lat="46.25333" lon="6.62977">
        <ele>724.4</ele>
        <time>2022-08-15T17:06:31Z</time>
      </trkpt>
      <trkpt lat="46.25301" lon="6.63002">
        <ele>724.7</ele>
        <time>2022-08-15T17:06:36Z</time>
      </trkpt>
      <trkpt lat="46.25268" lon="6.63015">
        <ele>725</ele>
        <time>2022-08-15T17:06:41Z</time>
      </trkpt>
      <trkpt lat="46.25232" lon="6.63031">
        <ele>725.3</ele>
        <time>2022-08-15T17:06:46Z</time>
      </trkpt>
      <trkpt lat="46.25203" lon="6.63049">
        <ele>725.7</ele>
        <time>2022-08-15T17:06:51Z</time>
      </trkpt>
      <trkpt lat="46.25175" lon="6.63073">
        <ele>726.1</ele>
        <time>2022-08-15T17:06:56Z</time>
      </trkpt>
      <trkpt lat="46.25147" lon="6.63101">
        <ele>726.6</ele>
        <time>2022-08-15T17:07:01Z</time>
      </trkpt>
      <trkpt lat="46.25137" lon="6.63119">
        <ele>727</ele>
        <time>2022-08-15T17:07:06Z</time>
      </trkpt>
      <trkpt lat="46.25142" lon="6.63107">
        <ele>726.8</ele>
        <time>2022-08-15T17:07:11Z</time>
      </trkpt>
      <trkpt lat="46.25152" lon="6.63097">
        <ele>726.6</ele>
        <time>2022-08-15T17:07:16Z</time>
      </trkpt>
      <trkpt lat="46.25162" lon="6.63081">
        <ele>726.3</ele>
        <time>2022-08-15T17:07:21Z</time>
      </trkpt>
      <trkpt lat="46.25173" lon="6.63065">
        <ele>726.1</ele>
        <time>2022-08-15T17:07:26Z</time>
      </trkpt>
      <trkpt lat="46.25184" lon="6.63046">
        <ele>725.9</ele>
        <time>2022-08-15T17:07:31Z</time>
      </trkpt>
      <trkpt lat="46.25198" lon="6.63032">
        <ele>725.7</ele>
        <time>2022-08-15T17:07:36Z</time>
      </trkpt>
      <trkpt lat="46.25208" lon="6.63023">
        <ele>725.6</ele>
        <time>2022-08-15T17:07:41Z</time>
      </trkpt>
      <trkpt lat="46.25218" lon="6.63005">
        <ele>725.4</ele>
        <time>2022-08-15T17:07:46Z</time>
      </trkpt>
      <trkpt lat="46.25227" lon="6.62994">
        <ele>725.3</ele>
        <time>2022-08-15T17:07:51Z</time>
      </trkpt>
      <trkpt lat="46.25235" lon="6.62981">
        <ele>725.2</ele>
        <time>2022-08-15T17:07:56Z</time>
      </trkpt>
      <trkpt lat="46.25242" lon="6.62974">
        <ele>725.1</ele>
        <time>2022-08-15T17:08:01Z</time>
      </trkpt>
      <trkpt lat="46.25245" lon="6.62966">
        <ele>725.1</ele>
        <time>2022-08-15T17:08:06Z</time>
      </trkpt>
      <trkpt lat="46.25258" lon="6.6297">
        <ele>725</ele>
        <time>2022-08-15T17:08:11Z</time>
      </trkpt>
      <trkpt lat="46.25267" lon="6.62967">
        <ele>725</ele>
        <time>2022-08-15T17:08:16Z</time>
      </trkpt>
      <trkpt lat="46.2528" lon="6.62973">
        <ele>724.9</ele>
        <time>2022-08-15T17:08:21Z</time>
      </trkpt>
      <trkpt lat="46.25294" lon="6.62978">
        <ele>724.8</ele>
        <time>2022-08-15T17:08:26Z</time>
      </trkpt>
      <trkpt lat="46.25305" lon="6.62985">
        <ele>733.4</ele>
        <time>2022-08-15T17:08:31Z</time>
      </trkpt>
      <trkpt lat="46.2532" lon="6.62991">
        <ele>741.6</ele>
        <time>2022-08-15T17:08:36Z</time>
      </trkpt>
      <trkpt lat="46.25335" lon="6.62993">
        <ele>742.9</ele>
        <time>2022-08-15T17:08:41Z</time>
      </trkpt>
      <trkpt lat="46.25352" lon="6.63002">
        <ele>744.5</ele>
        <time>2022-08-15T17:08:46Z</time>
      </trkpt>
      <trkpt lat="46.25368" lon="6.63019">
        <ele>746.4</ele>
        <time>2022-08-15T17:08:51Z</time>
      </trkpt>
      <trkpt lat="46.25386" lon="6.63032">
        <ele>748.5</ele>
        <time>2022-08-15T17:08:56Z</time>
      </trkpt>
      <trkpt lat="46.25399" lon="6.63035">
        <ele>749.9</ele>
        <time>2022-08-15T17:09:01Z</time>
      </trkpt>
      <trkpt lat="46.25415" lon="6.63037">
        <ele>751.9</ele>
        <time>2022-08-15T17:09:06Z</time>
      </trkpt>
      <trkpt lat="46.2543" lon="6.63033">
        <ele>753.7</ele>
        <time>2022-08-15T17:09:11Z</time>
      </trkpt>
      <trkpt lat="46.25442" lon="6.63031">
        <ele>755.4</ele>
        <time>2022-08-15T17:09:16Z</time>
      </trkpt>
      <trkpt lat="46.25453" lon="6.63034">
        <ele>756.8</ele>
        <time>2022-08-15T17:09:21Z</time>
      </trkpt>
      <trkpt lat="46.25466" lon="6.63048">
        <ele>758.7</ele>
        <time>2022-08-15T17:09:26Z</time>
      </trkpt>
      <trkpt lat="46.2548" lon="6.6306">
        <ele>759.9</ele>
        <time>2022-08-15T17:09:31Z</time>
      </trkpt>
      <trkpt lat="46.25491" lon="6.63069">
        <ele>760.7</ele>
        <time>2022-08-15T17:09:36Z</time>
      </trkpt>
      <trkpt lat="46.25504" lon="6.6308">
        <ele>761.5</ele>
        <time>2022-08-15T17:09:41Z</time>
      </trkpt>
      <trkpt lat="46.25519" lon="6.63087">
        <ele>762.4</ele>
        <time>2022-08-15T17:09:46Z</time>
      </trkpt>
      <trkpt lat="46.2553" lon="6.63094">
        <ele>763.1</ele>
        <time>2022-08-15T17:09:51Z</time>
      </trkpt>
      <trkpt lat="46.25542" lon="6.63098">
        <ele>763.8</ele>
        <time>2022-08-15T17:09:56Z</time>
      </trkpt>
      <trkpt lat="46.25552" lon="6.63102">
        <ele>764.6</ele>
        <time>2022-08-15T17:10:01Z</time>
      </trkpt>
      <trkpt lat="46.25564" lon="6.63105">
        <ele>765.5</ele>
        <time>2022-08-15T17:10:06Z</time>
      </trkpt>
      <trkpt lat="46.25575" lon="6.63107">
        <ele>766.6</ele>
        <time>2022-08-15T17:10:11Z</time>
      </trkpt>
      <trkpt lat="46.25588" lon="6.63108">
        <ele>768</ele>
        <time>2022-08-15T17:10:16Z</time>
      </trkpt>
      <trkpt lat="46.25605" lon="6.63102">
        <ele>770</ele>
        <time>2022-08-15T17:10:21Z</time>
      </trkpt>
      <trkpt lat="46.25619" lon="6.63093">
        <ele>771.8</ele>
        <time>2022-08-15T17:10:26Z</time>
      </trkpt>
      <trkpt lat="46.25634" lon="6.63087">
        <ele>773.5</ele>
        <time>2022-08-15T17:10:31Z</time>
      </trkpt>
      <trkpt lat="46.2565" lon="6.63075">
        <ele>775.5</ele>
        <time>2022-08-15T17:10:36Z</time>
      </trkpt>
      <trkpt lat="46.25664" lon="6.63063">
        <ele>777.3</ele>
        <time>2022-08-15T17:10:41Z</time>
      </trkpt>
      <trkpt lat="46.25676" lon="6.63051">
        <ele>779</ele>
        <time>2022-08-15T17:10:46Z</time>
      </trkpt>
      <trkpt lat="46.2569" lon="6.63046">
        <ele>780.7</ele>
        <time>2022-08-15T17:10:51Z</time>
      </trkpt>
      <trkpt lat="46.25703" lon="6.63051">
        <ele>782</ele>
        <time>2022-08-15T17:10:56Z</time>
      </trkpt>
      <trkpt lat="46.25714" lon="6.63061">
        <ele>783</ele>
        <time>2022-08-15T17:11:01Z</time>
      </trkpt>
      <trkpt lat="46.25727" lon="6.63072">
        <ele>784</ele>
        <time>2022-08-15T17:11:06Z</time>
      </trkpt>
      <trkpt lat="46.25741" lon="6.63083">
        <ele>785.3</ele>
        <time>2022-08-15T17:11:11Z</time>
      </trkpt>
      <trkpt lat="46.25751" lon="6.63092">
        <ele>786.5</ele>
        <time>2022-08-15T17:11:16Z</time>
      </trkpt>
      <trkpt lat="46.25764" lon="6.63098">
        <ele>787.9</ele>
        <time>2022-08-15T17:11:21Z</time>
      </trkpt>
      <trkpt lat="46.25778" lon="6.63093">
        <ele>789.2</ele>
        <time>2022-08-15T17:11:26Z</time>
      </trkpt>
      <trkpt lat="46.2579" lon="6.63084">
        <ele>790.1</ele>
        <time>2022-08-15T17:11:31Z</time>
      </trkpt>
      <trkpt lat="46.258" lon="6.63073">
        <ele>790.8</ele>
        <time>2022-08-15T17:11:36Z</time>
      </trkpt>
      <trkpt lat="46.2581" lon="6.63059">
        <ele>791.8</ele>
        <time>2022-08-15T17:11:41Z</time>
      </trkpt>
      <trkpt lat="46.25818" lon="6.63044">
        <ele>793.1</ele>
        <time>2022-08-15T17:11:46Z</time>
      </trkpt>
      <trkpt lat="46.25827" lon="6.63029">
        <ele>794.5</ele>
        <time>2022-08-15T17:11:51Z</time>
      </trkpt>
      <trkpt lat="46.25835" lon="6.63015">
        <ele>795.9</ele>
        <time>2022-08-15T17:11:56Z</time>
      </trkpt>
      <trkpt lat="46.25845" lon="6.63003">
        <ele>797.3</ele>
        <time>2022-08-15T17:12:01Z</time>
      </trkpt>
      <trkpt lat="46.25857" lon="6.62997">
        <ele>798.7</ele>
        <time>2022-08-15T17:12:06Z</time>
      </trkpt>
      <trkpt lat="46.25869" lon="6.63001">
        <ele>799.9</ele>
        <time>2022-08-15T17:12:11Z</time>
      </trkpt>
      <trkpt lat="46.2588" lon="6.63011">
        <ele>801.2</ele>
        <time>2022-08-15T17:12:16Z</time>
      </trkpt>
      <trkpt lat="46.25891" lon="6.63021">
        <ele>802.4</ele>
        <time>2022-08-15T17:12:21Z</time>
      </trkpt>
      <trkpt lat="46.25901" lon="6.63031">
        <ele>803.4</ele>
        <time>2022-08-15T17:12:26Z</time>
      </trkpt>
      <trkpt lat="46.2591" lon="6.63043">
        <ele>804</ele>
        <time>2022-08-15T17:12:31Z</time>
      </trkpt>
      <trkpt lat="46.25918" lon="6.63058">
        <ele>804.7</ele>
        <time>2022-08-15T17:12:36Z</time>
      </trkpt>
      <trkpt lat="46.25925" lon="6.63071">
        <ele>805.7</ele>
        <time>2022-08-15T17:12:41Z</time>
      </trkpt>
      <trkpt lat="46.25931" lon="6.63083">
        <ele>806.6</ele>
        <time>2022-08-15T17:12:46Z</time>
      </trkpt>
      <trkpt lat="46.25936" lon="6.631">
        <ele>807.7</ele>
        <time>2022-08-15T17:12:51Z</time>
      </trkpt>
      <trkpt lat="46.2594" lon="6.63117">
        <ele>809</ele>
        <time>2022-08-15T17:12:56Z</time>
      </trkpt>
      <trkpt lat="46.25945" lon="6.63134">
        <ele>810.2</ele>
        <time>2022-08-15T17:13:01Z</time>
      </trkpt>
      <trkpt lat="46.2595" lon="6.63151">
        <ele>811.5</ele>
        <time>2022-08-15T17:13:06Z</time>
      </trkpt>
      <trkpt lat="46.25957" lon="6.63167">
        <ele>812.7</ele>
        <time>2022-08-15T17:13:11Z</time>
      </trkpt>
      <trkpt lat="46.25967" lon="6.6318">
        <ele>814</ele>
        <time>2022-08-15T17:13:16Z</time>
      </trkpt>
      <trkpt lat="46.25978" lon="6.63191">
        <ele>815.1</ele>
        <time>2022-08-15T17:13:21Z</time>
      </trkpt>
      <trkpt lat="46.2599" lon="6.63199">
        <ele>816.3</ele>
        <time>2022-08-15T17:13:26Z</time>
      </trkpt>
      <trkpt lat="46.26002" lon="6.63206">
        <ele>817.5</ele>
        <time>2022-08-15T17:13:31Z</time>
      </trkpt>
      <trkpt lat="46.26013" lon="6.63212">
        <ele>818.6</ele>
        <time>2022-08-15T17:13:36Z</time>
      </trkpt>
      <trkpt lat="46.26025" lon="6.63217">
        <ele>819.8</ele>
        <time>2022-08-15T17:13:41Z</time>
      </trkpt>
      <trkpt lat="46.26037" lon="6.63223">
        <ele>821</ele>
        <time>2022-08-15T17:13:46Z</time>
      </trkpt>
      <trkpt lat="46.2605" lon="6.63232">
        <ele>822.4</ele>
        <time>2022-08-15T17:13:51Z</time>
      </trkpt>
      <trkpt lat="46.26063" lon="6.63243">
        <ele>823.8</ele>
        <time>2022-08-15T17:13:56Z</time>
      </trkpt>
      <trkpt lat="46.26076" lon="6.63253">
        <ele>825.3</ele>
        <time>2022-08-15T17:14:01Z</time>
      </trkpt>
      <trkpt lat="46.26089" lon="6.63261">
        <ele>826.8</ele>
        <time>2022-08-15T17:14:06Z</time>
      </trkpt>
      <trkpt lat="46.26102" lon="6.63271">
        <ele>828.3</ele>
        <time>2022-08-15T17:14:11Z</time>
      </trkpt>
      <trkpt lat="46.2611" lon="6.6328">
        <ele>829.3</ele>
        <time>2022-08-15T17:14:16Z</time>
      </trkpt>
      <trkpt lat="46.26117" lon="6.63293">
        <ele>830.5</ele>
        <time>2022-08-15T17:14:21Z</time>
      </trkpt>
      <trkpt lat="46.26123" lon="6.6331">
        <ele>831.9</ele>
        <time>2022-08-15T17:14:26Z</time>
      </trkpt>
      <trkpt lat="46.26133" lon="6.63326">
        <ele>833.2</ele>
        <time>2022-08-15T17:14:31Z</time>
      </trkpt>
      <trkpt lat="46.26143" lon="6.63337">
        <ele>834.1</ele>
        <time>2022-08-15T17:14:36Z</time>
      </trkpt>
      <trkpt lat="46.26151" lon="6.63356">
        <ele>834.7</ele>
        <time>2022-08-15T17:14:41Z</time>
      </trkpt>
      <trkpt lat="46.26157" lon="6.63375">
        <ele>834.9</ele>
        <time>2022-08-15T17:14:46Z</time>
      </trkpt>
      <trkpt lat="46.26173" lon="6.6338">
        <ele>835.3</ele>
        <time>2022-08-15T17:14:51Z</time>
      </trkpt>
      <trkpt lat="46.26188" lon="6.63373">
        <ele>836.2</ele>
        <time>2022-08-15T17:14:56Z</time>
      </trkpt>
      <trkpt lat="46.262" lon="6.63365">
        <ele>837.2</ele>
        <time>2022-08-15T17:15:01Z</time>
      </trkpt>
      <trkpt lat="46.26212" lon="6.63354">
        <ele>838.1</ele>
        <time>2022-08-15T17:15:06Z</time>
      </trkpt>
      <trkpt lat="46.26226" lon="6.63346">
        <ele>839.2</ele>
        <time>2022-08-15T17:15:11Z</time>
      </trkpt>
      <trkpt lat="46.26239" lon="6.63337">
        <ele>840.2</ele>
        <time>2022-08-15T17:15:16Z</time>
      </trkpt>
      <trkpt lat="46.26253" lon="6.6333">
        <ele>841.3</ele>
        <time>2022-08-15T17:15:21Z</time>
      </trkpt>
      <trkpt lat="46.26268" lon="6.63323">
        <ele>842.4</ele>
        <time>2022-08-15T17:15:26Z</time>
      </trkpt>
      <trkpt lat="46.26282" lon="6.63317">
        <ele>843.4</ele>
        <time>2022-08-15T17:15:31Z</time>
      </trkpt>
      <trkpt lat="46.26297" lon="6.63311">
        <ele>844.5</ele>
        <time>2022-08-15T17:15:36Z</time>
      </trkpt>
      <trkpt lat="46.2631" lon="6.63306">
        <ele>845.8</ele>
        <time>2022-08-15T17:15:41Z</time>
      </trkpt>
      <trkpt lat="46.26323" lon="6.63302">
        <ele>847</ele>
        <time>2022-08-15T17:15:46Z</time>
      </trkpt>
      <trkpt lat="46.26335" lon="6.63299">
        <ele>848.3</ele>
        <time>2022-08-15T17:15:51Z</time>
      </trkpt>
      <trkpt lat="46.26347" lon="6.63296">
        <ele>849.6</ele>
        <time>2022-08-15T17:15:56Z</time>
      </trkpt>
      <trkpt lat="46.2636" lon="6.63292">
        <ele>851</ele>
        <time>2022-08-15T17:16:01Z</time>
      </trkpt>
      <trkpt lat="46.26372" lon="6.6329">
        <ele>852.4</ele>
        <time>2022-08-15T17:16:06Z</time>
      </trkpt>
      <trkpt lat="46.26384" lon="6.63288">
        <ele>853.8</ele>
        <time>2022-08-15T17:16:11Z</time>
      </trkpt>
      <trkpt lat="46.26395" lon="6.63284">
        <ele>855.1</ele>
        <time>2022-08-15T17:16:16Z</time>
      </trkpt>
      <trkpt lat="46.26407" lon="6.6328">
        <ele>856.4</ele>
        <time>2022-08-15T17:16:21Z</time>
      </trkpt>
      <trkpt lat="46.26418" lon="6.63276">
        <ele>857.6</ele>
        <time>2022-08-15T17:16:26Z</time>
      </trkpt>
      <trkpt lat="46.2643" lon="6.63273">
        <ele>858.9</ele>
        <time>2022-08-15T17:16:31Z</time>
      </trkpt>
      <trkpt lat="46.26442" lon="6.6327">
        <ele>860.2</ele>
        <time>2022-08-15T17:16:36Z</time>
      </trkpt>
      <trkpt lat="46.26455" lon="6.63267">
        <ele>861.5</ele>
        <time>2022-08-15T17:16:41Z</time>
      </trkpt>
      <trkpt lat="46.26467" lon="6.63265">
        <ele>862.8</ele>
        <time>2022-08-15T17:16:46Z</time>
      </trkpt>
      <trkpt lat="46.2648" lon="6.63262">
        <ele>864.1</ele>
        <time>2022-08-15T17:16:51Z</time>
      </trkpt>
      <trkpt lat="46.26493" lon="6.63262">
        <ele>865.5</ele>
        <time>2022-08-15T17:16:56Z</time>
      </trkpt>
      <trkpt lat="46.26506" lon="6.63262">
        <ele>866.8</ele>
        <time>2022-08-15T17:17:01Z</time>
      </trkpt>
      <trkpt lat="46.26519" lon="6.63263">
        <ele>868.1</ele>
        <time>2022-08-15T17:17:06Z</time>
      </trkpt>
      <trkpt lat="46.26531" lon="6.6326">
        <ele>869.4</ele>
        <time>2022-08-15T17:17:11Z</time>
      </trkpt>
      <trkpt lat="46.26543" lon="6.63257">
        <ele>870.5</ele>
        <time>2022-08-15T17:17:16Z</time>
      </trkpt>
      <trkpt lat="46.26554" lon="6.6325">
        <ele>871.6</ele>
        <time>2022-08-15T17:17:21Z</time>
      </trkpt>
      <trkpt lat="46.26565" lon="6.63243">
        <ele>872.8</ele>
        <time>2022-08-15T17:17:26Z</time>
      </trkpt>
      <trkpt lat="46.26575" lon="6.63236">
        <ele>874</ele>
        <time>2022-08-15T17:17:31Z</time>
      </trkpt>
      <trkpt lat="46.26585" lon="6.63231">
        <ele>875</ele>
        <time>2022-08-15T17:17:36Z</time>
      </trkpt>
      <trkpt lat="46.26598" lon="6.63227">
        <ele>876.4</ele>
        <time>2022-08-15T17:17:41Z</time>
      </trkpt>
      <trkpt lat="46.2661" lon="6.63223">
        <ele>877.5</ele>
        <time>2022-08-15T17:17:46Z</time>
      </trkpt>
      <trkpt lat="46.26621" lon="6.63223">
        <ele>878.6</ele>
        <time>2022-08-15T17:17:51Z</time>
      </trkpt>
      <trkpt lat="46.26634" lon="6.63228">
        <ele>879.8</ele>
        <time>2022-08-15T17:17:56Z</time>
      </trkpt>
      <trkpt lat="46.26647" lon="6.63234">
        <ele>881.1</ele>
        <time>2022-08-15T17:18:01Z</time>
      </trkpt>
      <trkpt lat="46.2666" lon="6.63239">
        <ele>882.2</ele>
        <time>2022-08-15T17:18:06Z</time>
      </trkpt>
      <trkpt lat="46.26671" lon="6.63246">
        <ele>883.3</ele>
        <time>2022-08-15T17:18:11Z</time>
      </trkpt>
      <trkpt lat="46.26682" lon="6.63255">
        <ele>884.7</ele>
        <time>2022-08-15T17:18:16Z</time>
      </trkpt>
      <trkpt lat="46.26692" lon="6.63262">
        <ele>885.9</ele>
        <time>2022-08-15T17:18:21Z</time>
      </trkpt>
      <trkpt lat="46.26702" lon="6.6327">
        <ele>887.2</ele>
        <time>2022-08-15T17:18:26Z</time>
      </trkpt>
      <trkpt lat="46.2671" lon="6.63277">
        <ele>888.2</ele>
        <time>2022-08-15T17:18:31Z</time>
      </trkpt>
      <trkpt lat="46.26717" lon="6.63283">
        <ele>889.2</ele>
        <time>2022-08-15T17:18:36Z</time>
      </trkpt>
      <trkpt lat="46.26725" lon="6.63293">
        <ele>890.5</ele>
        <time>2022-08-15T17:18:41Z</time>
      </trkpt>
      <trkpt lat="46.26733" lon="6.63302">
        <ele>891.5</ele>
        <time>2022-08-15T17:18:46Z</time>
      </trkpt>
      <trkpt lat="46.26742" lon="6.63311">
        <ele>892.7</ele>
        <time>2022-08-15T17:18:51Z</time>
      </trkpt>
      <trkpt lat="46.26756" lon="6.63319">
        <ele>894.2</ele>
        <time>2022-08-15T17:18:56Z</time>
      </trkpt>
      <trkpt lat="46.26766" lon="6.63326">
        <ele>895.4</ele>
        <time>2022-08-15T17:19:01Z</time>
      </trkpt>
      <trkpt lat="46.26775" lon="6.63337">
        <ele>896.6</ele>
        <time>2022-08-15T17:19:06Z</time>
      </trkpt>
      <trkpt lat="46.26786" lon="6.6335">
        <ele>898</ele>
        <time>2022-08-15T17:19:11Z</time>
      </trkpt>
      <trkpt lat="46.26799" lon="6.63353">
        <ele>899.3</ele>
        <time>2022-08-15T17:19:16Z</time>
      </trkpt>
      <trkpt lat="46.26818" lon="6.6336">
        <ele>901.1</ele>
        <time>2022-08-15T17:19:21Z</time>
      </trkpt>
      <trkpt lat="46.26828" lon="6.63347">
        <ele>902.4</ele>
        <time>2022-08-15T17:19:26Z</time>
      </trkpt>
      <trkpt lat="46.26832" lon="6.63328">
        <ele>903.4</ele>
        <time>2022-08-15T17:19:31Z</time>
      </trkpt>
      <trkpt lat="46.26831" lon="6.63308">
        <ele>904.3</ele>
        <time>2022-08-15T17:19:36Z</time>
      </trkpt>
      <trkpt lat="46.26837" lon="6.63289">
        <ele>905.1</ele>
        <time>2022-08-15T17:19:41Z</time>
      </trkpt>
      <trkpt lat="46.26846" lon="6.6327">
        <ele>906</ele>
        <time>2022-08-15T17:19:46Z</time>
      </trkpt>
      <trkpt lat="46.26855" lon="6.6325">
        <ele>906.9</ele>
        <time>2022-08-15T17:19:51Z</time>
      </trkpt>
      <trkpt lat="46.26866" lon="6.6323">
        <ele>907.8</ele>
        <time>2022-08-15T17:19:56Z</time>
      </trkpt>
      <trkpt lat="46.26881" lon="6.63218">
        <ele>908.8</ele>
        <time>2022-08-15T17:20:01Z</time>
      </trkpt>
      <trkpt lat="46.26897" lon="6.63202">
        <ele>909.9</ele>
        <time>2022-08-15T17:20:06Z</time>
      </trkpt>
      <trkpt lat="46.2691" lon="6.63183">
        <ele>911.1</ele>
        <time>2022-08-15T17:20:11Z</time>
      </trkpt>
      <trkpt lat="46.26927" lon="6.63173">
        <ele>912.3</ele>
        <time>2022-08-15T17:20:16Z</time>
      </trkpt>
      <trkpt lat="46.26941" lon="6.63176">
        <ele>913.7</ele>
        <time>2022-08-15T17:20:21Z</time>
      </trkpt>
      <trkpt lat="46.26952" lon="6.63178">
        <ele>914.6</ele>
        <time>2022-08-15T17:20:26Z</time>
      </trkpt>
      <trkpt lat="46.26969" lon="6.63177">
        <ele>915.9</ele>
        <time>2022-08-15T17:20:31Z</time>
      </trkpt>
      <trkpt lat="46.26984" lon="6.63175">
        <ele>916.9</ele>
        <time>2022-08-15T17:20:36Z</time>
      </trkpt>
      <trkpt lat="46.27" lon="6.63171">
        <ele>917.9</ele>
        <time>2022-08-15T17:20:41Z</time>
      </trkpt>
      <trkpt lat="46.27013" lon="6.63164">
        <ele>918.9</ele>
        <time>2022-08-15T17:20:46Z</time>
      </trkpt>
      <trkpt lat="46.27027" lon="6.63162">
        <ele>919.9</ele>
        <time>2022-08-15T17:20:51Z</time>
      </trkpt>
      <trkpt lat="46.2704" lon="6.63159">
        <ele>920.8</ele>
        <time>2022-08-15T17:20:56Z</time>
      </trkpt>
      <trkpt lat="46.27052" lon="6.6316">
        <ele>921.6</ele>
        <time>2022-08-15T17:21:01Z</time>
      </trkpt>
      <trkpt lat="46.27065" lon="6.63163">
        <ele>922.4</ele>
        <time>2022-08-15T17:21:06Z</time>
      </trkpt>
      <trkpt lat="46.27078" lon="6.63165">
        <ele>923.1</ele>
        <time>2022-08-15T17:21:11Z</time>
      </trkpt>
      <trkpt lat="46.2709" lon="6.63171">
        <ele>923.8</ele>
        <time>2022-08-15T17:21:16Z</time>
      </trkpt>
      <trkpt lat="46.27105" lon="6.63181">
        <ele>924.9</ele>
        <time>2022-08-15T17:21:21Z</time>
      </trkpt>
      <trkpt lat="46.27121" lon="6.6319">
        <ele>926.3</ele>
        <time>2022-08-15T17:21:26Z</time>
      </trkpt>
      <trkpt lat="46.27134" lon="6.63194">
        <ele>927.4</ele>
        <time>2022-08-15T17:21:31Z</time>
      </trkpt>
      <trkpt lat="46.27146" lon="6.63203">
        <ele>928.7</ele>
        <time>2022-08-15T17:21:36Z</time>
      </trkpt>
      <trkpt lat="46.27159" lon="6.63205">
        <ele>929.8</ele>
        <time>2022-08-15T17:21:41Z</time>
      </trkpt>
      <trkpt lat="46.27173" lon="6.63209">
        <ele>931.2</ele>
        <time>2022-08-15T17:21:46Z</time>
      </trkpt>
      <trkpt lat="46.27186" lon="6.6322">
        <ele>932.5</ele>
        <time>2022-08-15T17:21:51Z</time>
      </trkpt>
      <trkpt lat="46.272" lon="6.63228">
        <ele>933.9</ele>
        <time>2022-08-15T17:21:56Z</time>
      </trkpt>
      <trkpt lat="46.27214" lon="6.63233">
        <ele>935.2</ele>
        <time>2022-08-15T17:22:01Z</time>
      </trkpt>
      <trkpt lat="46.2723" lon="6.63241">
        <ele>936.7</ele>
        <time>2022-08-15T17:22:06Z</time>
      </trkpt>
      <trkpt lat="46.27241" lon="6.63246">
        <ele>937.9</ele>
        <time>2022-08-15T17:22:11Z</time>
      </trkpt>
      <trkpt lat="46.27259" lon="6.63255">
        <ele>939.8</ele>
        <time>2022-08-15T17:22:16Z</time>
      </trkpt>
      <trkpt lat="46.27274" lon="6.63258">
        <ele>941.4</ele>
        <time>2022-08-15T17:22:21Z</time>
      </trkpt>
      <trkpt lat="46.27288" lon="6.63262">
        <ele>943</ele>
        <time>2022-08-15T17:22:26Z</time>
      </trkpt>
      <trkpt lat="46.27298" lon="6.63265">
        <ele>944.4</ele>
        <time>2022-08-15T17:22:31Z</time>
      </trkpt>
      <trkpt lat="46.27311" lon="6.63266">
        <ele>946.1</ele>
        <time>2022-08-15T17:22:36Z</time>
      </trkpt>
      <trkpt lat="46.27323" lon="6.63264">
        <ele>947.6</ele>
        <time>2022-08-15T17:22:41Z</time>
      </trkpt>
      <trkpt lat="46.27335" lon="6.63266">
        <ele>949.1</ele>
        <time>2022-08-15T17:22:46Z</time>
      </trkpt>
      <trkpt lat="46.27345" lon="6.63263">
        <ele>950.6</ele>
        <time>2022-08-15T17:22:51Z</time>
      </trkpt>
      <trkpt lat="46.27354" lon="6.63261">
        <ele>951.8</ele>
        <time>2022-08-15T17:22:56Z</time>
      </trkpt>
      <trkpt lat="46.27362" lon="6.63263">
        <ele>953</ele>
        <time>2022-08-15T17:23:01Z</time>
      </trkpt>
      <trkpt lat="46.27381" lon="6.63262">
        <ele>955.6</ele>
        <time>2022-08-15T17:23:06Z</time>
      </trkpt>
      <trkpt lat="46.27392" lon="6.63255">
        <ele>957.4</ele>
        <time>2022-08-15T17:23:11Z</time>
      </trkpt>
      <trkpt lat="46.27401" lon="6.63249">
        <ele>959</ele>
        <time>2022-08-15T17:23:16Z</time>
      </trkpt>
      <trkpt lat="46.27409" lon="6.63243">
        <ele>960.2</ele>
        <time>2022-08-15T17:23:21Z</time>
      </trkpt>
      <trkpt lat="46.27417" lon="6.63238">
        <ele>961.4</ele>
        <time>2022-08-15T17:23:26Z</time>
      </trkpt>
      <trkpt lat="46.27427" lon="6.63234">
        <ele>962.5</ele>
        <time>2022-08-15T17:23:31Z</time>
      </trkpt>
      <trkpt lat="46.27436" lon="6.6323">
        <ele>963.5</ele>
        <time>2022-08-15T17:23:36Z</time>
      </trkpt>
      <trkpt lat="46.27447" lon="6.63226">
        <ele>964.4</ele>
        <time>2022-08-15T17:23:41Z</time>
      </trkpt>
      <trkpt lat="46.27457" lon="6.6322">
        <ele>965.4</ele>
        <time>2022-08-15T17:23:46Z</time>
      </trkpt>
      <trkpt lat="46.27465" lon="6.63216">
        <ele>966.2</ele>
        <time>2022-08-15T17:23:51Z</time>
      </trkpt>
      <trkpt lat="46.27486" lon="6.63217">
        <ele>968.5</ele>
        <time>2022-08-15T17:23:56Z</time>
      </trkpt>
      <trkpt lat="46.275" lon="6.63213">
        <ele>970</ele>
        <time>2022-08-15T17:24:01Z</time>
      </trkpt>
      <trkpt lat="46.2751" lon="6.63201">
        <ele>971.2</ele>
        <time>2022-08-15T17:24:06Z</time>
      </trkpt>
      <trkpt lat="46.27517" lon="6.63184">
        <ele>972.5</ele>
        <time>2022-08-15T17:24:11Z</time>
      </trkpt>
      <trkpt lat="46.27519" lon="6.63163">
        <ele>974</ele>
        <time>2022-08-15T17:24:16Z</time>
      </trkpt>
      <trkpt lat="46.27521" lon="6.63145">
        <ele>975.6</ele>
        <time>2022-08-15T17:24:21Z</time>
      </trkpt>
      <trkpt lat="46.27526" lon="6.63125">
        <ele>977.6</ele>
        <time>2022-08-15T17:24:26Z</time>
      </trkpt>
      <trkpt lat="46.27537" lon="6.63117">
        <ele>979.4</ele>
        <time>2022-08-15T17:24:31Z</time>
      </trkpt>
      <trkpt lat="46.2755" lon="6.63126">
        <ele>981</ele>
        <time>2022-08-15T17:24:36Z</time>
      </trkpt>
      <trkpt lat="46.27556" lon="6.63145">
        <ele>982.1</ele>
        <time>2022-08-15T17:24:41Z</time>
      </trkpt>
      <trkpt lat="46.27558" lon="6.63165">
        <ele>983.1</ele>
        <time>2022-08-15T17:24:46Z</time>
      </trkpt>
      <trkpt lat="46.27562" lon="6.63183">
        <ele>984.1</ele>
        <time>2022-08-15T17:24:51Z</time>
      </trkpt>
      <trkpt lat="46.27568" lon="6.63196">
        <ele>985.1</ele>
        <time>2022-08-15T17:24:56Z</time>
      </trkpt>
      <trkpt lat="46.27579" lon="6.63207">
        <ele>986.4</ele>
        <time>2022-08-15T17:25:01Z</time>
      </trkpt>
      <trkpt lat="46.2759" lon="6.63217">
        <ele>987.7</ele>
        <time>2022-08-15T17:25:06Z</time>
      </trkpt>
      <trkpt lat="46.276" lon="6.63226">
        <ele>988.8</ele>
        <time>2022-08-15T17:25:11Z</time>
      </trkpt>
      <trkpt lat="46.27612" lon="6.63235">
        <ele>990</ele>
        <time>2022-08-15T17:25:16Z</time>
      </trkpt>
      <trkpt lat="46.27623" lon="6.63238">
        <ele>991</ele>
        <time>2022-08-15T17:25:21Z</time>
      </trkpt>
      <trkpt lat="46.27635" lon="6.63239">
        <ele>992</ele>
        <time>2022-08-15T17:25:26Z</time>
      </trkpt>
      <trkpt lat="46.27645" lon="6.6324">
        <ele>992.9</ele>
        <time>2022-08-15T17:25:31Z</time>
      </trkpt>
      <trkpt lat="46.27654" lon="6.63239">
        <ele>993.8</ele>
        <time>2022-08-15T17:25:36Z</time>
      </trkpt>
      <trkpt lat="46.27663" lon="6.6324">
        <ele>994.8</ele>
        <time>2022-08-15T17:25:41Z</time>
      </trkpt>
      <trkpt lat="46.27671" lon="6.6324">
        <ele>995.8</ele>
        <time>2022-08-15T17:25:46Z</time>
      </trkpt>
      <trkpt lat="46.27681" lon="6.63241">
        <ele>997.1</ele>
        <time>2022-08-15T17:25:51Z</time>
      </trkpt>
      <trkpt lat="46.27691" lon="6.63237">
        <ele>998.6</ele>
        <time>2022-08-15T17:25:56Z</time>
      </trkpt>
      <trkpt lat="46.2771" lon="6.63235">
        <ele>1001.2</ele>
        <time>2022-08-15T17:26:01Z</time>
      </trkpt>
      <trkpt lat="46.27723" lon="6.63229">
        <ele>1002.6</ele>
        <time>2022-08-15T17:26:06Z</time>
      </trkpt>
      <trkpt lat="46.27734" lon="6.63217">
        <ele>1003.7</ele>
        <time>2022-08-15T17:26:11Z</time>
      </trkpt>
      <trkpt lat="46.27741" lon="6.63205">
        <ele>1004.7</ele>
        <time>2022-08-15T17:26:16Z</time>
      </trkpt>
      <trkpt lat="46.27749" lon="6.63195">
        <ele>1005.7</ele>
        <time>2022-08-15T17:26:21Z</time>
      </trkpt>
      <trkpt lat="46.27758" lon="6.63183">
        <ele>1006.8</ele>
        <time>2022-08-15T17:26:26Z</time>
      </trkpt>
      <trkpt lat="46.27764" lon="6.6317">
        <ele>1008</ele>
        <time>2022-08-15T17:26:31Z</time>
      </trkpt>
      <trkpt lat="46.27774" lon="6.63159">
        <ele>1009.5</ele>
        <time>2022-08-15T17:26:36Z</time>
      </trkpt>
      <trkpt lat="46.27786" lon="6.63152">
        <ele>1010.9</ele>
        <time>2022-08-15T17:26:41Z</time>
      </trkpt>
      <trkpt lat="46.27798" lon="6.6315">
        <ele>1012.2</ele>
        <time>2022-08-15T17:26:46Z</time>
      </trkpt>
      <trkpt lat="46.2781" lon="6.6315">
        <ele>1013.5</ele>
        <time>2022-08-15T17:26:51Z</time>
      </trkpt>
      <trkpt lat="46.27823" lon="6.63151">
        <ele>1014.9</ele>
        <time>2022-08-15T17:26:56Z</time>
      </trkpt>
      <trkpt lat="46.27835" lon="6.63151">
        <ele>1016.2</ele>
        <time>2022-08-15T17:27:01Z</time>
      </trkpt>
      <trkpt lat="46.27846" lon="6.63152">
        <ele>1017.4</ele>
        <time>2022-08-15T17:27:06Z</time>
      </trkpt>
      <trkpt lat="46.27857" lon="6.63149">
        <ele>1018.5</ele>
        <time>2022-08-15T17:27:11Z</time>
      </trkpt>
      <trkpt lat="46.27868" lon="6.63146">
        <ele>1019.7</ele>
        <time>2022-08-15T17:27:16Z</time>
      </trkpt>
      <trkpt lat="46.27878" lon="6.63141">
        <ele>1020.7</ele>
        <time>2022-08-15T17:27:21Z</time>
      </trkpt>
      <trkpt lat="46.27889" lon="6.63135">
        <ele>1022</ele>
        <time>2022-08-15T17:27:26Z</time>
      </trkpt>
      <trkpt lat="46.27901" lon="6.63132">
        <ele>1023.4</ele>
        <time>2022-08-15T17:27:31Z</time>
      </trkpt>
      <trkpt lat="46.27913" lon="6.6313">
        <ele>1024.8</ele>
        <time>2022-08-15T17:27:36Z</time>
      </trkpt>
      <trkpt lat="46.27923" lon="6.6313">
        <ele>1026.1</ele>
        <time>2022-08-15T17:27:41Z</time>
      </trkpt>
      <trkpt lat="46.27934" lon="6.63132">
        <ele>1027.4</ele>
        <time>2022-08-15T17:27:46Z</time>
      </trkpt>
      <trkpt lat="46.27943" lon="6.63136">
        <ele>1028.5</ele>
        <time>2022-08-15T17:27:51Z</time>
      </trkpt>
      <trkpt lat="46.27951" lon="6.63145">
        <ele>1029.8</ele>
        <time>2022-08-15T17:27:56Z</time>
      </trkpt>
      <trkpt lat="46.27962" lon="6.63158">
        <ele>1031.4</ele>
        <time>2022-08-15T17:28:01Z</time>
      </trkpt>
      <trkpt lat="46.2797" lon="6.63171">
        <ele>1032.8</ele>
        <time>2022-08-15T17:28:06Z</time>
      </trkpt>
      <trkpt lat="46.27978" lon="6.63182">
        <ele>1034.1</ele>
        <time>2022-08-15T17:28:11Z</time>
      </trkpt>
      <trkpt lat="46.27986" lon="6.6319">
        <ele>1035.4</ele>
        <time>2022-08-15T17:28:16Z</time>
      </trkpt>
      <trkpt lat="46.27997" lon="6.63196">
        <ele>1036.6</ele>
        <time>2022-08-15T17:28:21Z</time>
      </trkpt>
      <trkpt lat="46.28008" lon="6.63199">
        <ele>1037.8</ele>
        <time>2022-08-15T17:28:26Z</time>
      </trkpt>
      <trkpt lat="46.28017" lon="6.63205">
        <ele>1038.9</ele>
        <time>2022-08-15T17:28:31Z</time>
      </trkpt>
      <trkpt lat="46.2803" lon="6.6321">
        <ele>1040.4</ele>
        <time>2022-08-15T17:28:36Z</time>
      </trkpt>
      <trkpt lat="46.28043" lon="6.6322">
        <ele>1042</ele>
        <time>2022-08-15T17:28:41Z</time>
      </trkpt>
      <trkpt lat="46.28053" lon="6.63224">
        <ele>1043.1</ele>
        <time>2022-08-15T17:28:46Z</time>
      </trkpt>
      <trkpt lat="46.28065" lon="6.63229">
        <ele>1044.5</ele>
        <time>2022-08-15T17:28:51Z</time>
      </trkpt>
      <trkpt lat="46.28078" lon="6.63235">
        <ele>1045.6</ele>
        <time>2022-08-15T17:28:56Z</time>
      </trkpt>
      <trkpt lat="46.2809" lon="6.6324">
        <ele>1046.6</ele>
        <time>2022-08-15T17:29:01Z</time>
      </trkpt>
      <trkpt lat="46.28102" lon="6.63245">
        <ele>1048.1</ele>
        <time>2022-08-15T17:29:06Z</time>
      </trkpt>
      <trkpt lat="46.28114" lon="6.63252">
        <ele>1049.6</ele>
        <time>2022-08-15T17:29:11Z</time>
      </trkpt>
      <trkpt lat="46.28125" lon="6.63263">
        <ele>1051.3</ele>
        <time>2022-08-15T17:29:16Z</time>
      </trkpt>
      <trkpt lat="46.28132" lon="6.63278">
        <ele>1052.8</ele>
        <time>2022-08-15T17:29:21Z</time>
      </trkpt>
      <trkpt lat="46.28131" lon="6.63294">
        <ele>1054.3</ele>
        <time>2022-08-15T17:29:26Z</time>
      </trkpt>
      <trkpt lat="46.2813" lon="6.63309">
        <ele>1055.6</ele>
        <time>2022-08-15T17:29:31Z</time>
      </trkpt>
      <trkpt lat="46.28126" lon="6.63323">
        <ele>1056.9</ele>
        <time>2022-08-15T17:29:36Z</time>
      </trkpt>
      <trkpt lat="46.28121" lon="6.63338">
        <ele>1058.2</ele>
        <time>2022-08-15T17:29:41Z</time>
      </trkpt>
      <trkpt lat="46.28116" lon="6.63352">
        <ele>1059.4</ele>
        <time>2022-08-15T17:29:46Z</time>
      </trkpt>
      <trkpt lat="46.28111" lon="6.63366">
        <ele>1060.5</ele>
        <time>2022-08-15T17:29:51Z</time>
      </trkpt>
      <trkpt lat="46.28105" lon="6.63381">
        <ele>1061.7</ele>
        <time>2022-08-15T17:29:56Z</time>
      </trkpt>
      <trkpt lat="46.281" lon="6.63397">
        <ele>1063</ele>
        <time>2022-08-15T17:30:01Z</time>
      </trkpt>
      <trkpt lat="46.28095" lon="6.63415">
        <ele>1064.4</ele>
        <time>2022-08-15T17:30:06Z</time>
      </trkpt>
      <trkpt lat="46.28087" lon="6.63434">
        <ele>1065.8</ele>
        <time>2022-08-15T17:30:11Z</time>
      </trkpt>
      <trkpt lat="46.28081" lon="6.63453">
        <ele>1067.1</ele>
        <time>2022-08-15T17:30:16Z</time>
      </trkpt>
      <trkpt lat="46.28074" lon="6.63473">
        <ele>1068.6</ele>
        <time>2022-08-15T17:30:21Z</time>
      </trkpt>
      <trkpt lat="46.28065" lon="6.63491">
        <ele>1069.6</ele>
        <time>2022-08-15T17:30:26Z</time>
      </trkpt>
      <trkpt lat="46.28057" lon="6.63507">
        <ele>1070</ele>
        <time>2022-08-15T17:30:31Z</time>
      </trkpt>
      <trkpt lat="46.28052" lon="6.63524">
        <ele>1070.4</ele>
        <time>2022-08-15T17:30:36Z</time>
      </trkpt>
      <trkpt lat="46.28049" lon="6.63544">
        <ele>1071.9</ele>
        <time>2022-08-15T17:30:41Z</time>
      </trkpt>
      <trkpt lat="46.28046" lon="6.63564">
        <ele>1073.4</ele>
        <time>2022-08-15T17:30:46Z</time>
      </trkpt>
      <trkpt lat="46.28039" lon="6.63583">
        <ele>1074.9</ele>
        <time>2022-08-15T17:30:51Z</time>
      </trkpt>
      <trkpt lat="46.28028" lon="6.63597">
        <ele>1076.4</ele>
        <time>2022-08-15T17:30:56Z</time>
      </trkpt>
      <trkpt lat="46.28015" lon="6.63605">
        <ele>1077.8</ele>
        <time>2022-08-15T17:31:01Z</time>
      </trkpt>
      <trkpt lat="46.28005" lon="6.63609">
        <ele>1078.9</ele>
        <time>2022-08-15T17:31:06Z</time>
      </trkpt>
      <trkpt lat="46.27995" lon="6.63612">
        <ele>1080</ele>
        <time>2022-08-15T17:31:11Z</time>
      </trkpt>
      <trkpt lat="46.27984" lon="6.63615">
        <ele>1081.1</ele>
        <time>2022-08-15T17:31:16Z</time>
      </trkpt>
      <trkpt lat="46.27972" lon="6.63617">
        <ele>1082.3</ele>
        <time>2022-08-15T17:31:21Z</time>
      </trkpt>
      <trkpt lat="46.2796" lon="6.6362">
        <ele>1083.5</ele>
        <time>2022-08-15T17:31:26Z</time>
      </trkpt>
      <trkpt lat="46.27948" lon="6.63623">
        <ele>1084.7</ele>
        <time>2022-08-15T17:31:31Z</time>
      </trkpt>
      <trkpt lat="46.27938" lon="6.63625">
        <ele>1085.6</ele>
        <time>2022-08-15T17:31:36Z</time>
      </trkpt>
      <trkpt lat="46.27925" lon="6.63628">
        <ele>1086.8</ele>
        <time>2022-08-15T17:31:41Z</time>
      </trkpt>
      <trkpt lat="46.27911" lon="6.63629">
        <ele>1088.1</ele>
        <time>2022-08-15T17:31:46Z</time>
      </trkpt>
      <trkpt lat="46.27896" lon="6.63628">
        <ele>1089.6</ele>
        <time>2022-08-15T17:31:51Z</time>
      </trkpt>
      <trkpt lat="46.27882" lon="6.63631">
        <ele>1091.2</ele>
        <time>2022-08-15T17:31:56Z</time>
      </trkpt>
      <trkpt lat="46.2787" lon="6.63644">
        <ele>1092.9</ele>
        <time>2022-08-15T17:32:01Z</time>
      </trkpt>
      <trkpt lat="46.2787" lon="6.63661">
        <ele>1094.3</ele>
        <time>2022-08-15T17:32:06Z</time>
      </trkpt>
      <trkpt lat="46.2788" lon="6.63671">
        <ele>1095.7</ele>
        <time>2022-08-15T17:32:11Z</time>
      </trkpt>
      <trkpt lat="46.27895" lon="6.63675">
        <ele>1096.7</ele>
        <time>2022-08-15T17:32:16Z</time>
      </trkpt>
      <trkpt lat="46.27909" lon="6.63678">
        <ele>1097.5</ele>
        <time>2022-08-15T17:32:21Z</time>
      </trkpt>
      <trkpt lat="46.2792" lon="6.63679">
        <ele>1098.2</ele>
        <time>2022-08-15T17:32:26Z</time>
      </trkpt>
      <trkpt lat="46.27931" lon="6.63679">
        <ele>1099.2</ele>
        <time>2022-08-15T17:32:31Z</time>
      </trkpt>
      <trkpt lat="46.27945" lon="6.63683">
        <ele>1100.7</ele>
        <time>2022-08-15T17:32:36Z</time>
      </trkpt>
      <trkpt lat="46.27957" lon="6.63685">
        <ele>1102.3</ele>
        <time>2022-08-15T17:32:41Z</time>
      </trkpt>
      <trkpt lat="46.27969" lon="6.63691">
        <ele>1104</ele>
        <time>2022-08-15T17:32:46Z</time>
      </trkpt>
      <trkpt lat="46.27979" lon="6.63703">
        <ele>1105.7</ele>
        <time>2022-08-15T17:32:51Z</time>
      </trkpt>
      <trkpt lat="46.27987" lon="6.63717">
        <ele>1107.3</ele>
        <time>2022-08-15T17:32:56Z</time>
      </trkpt>
      <trkpt lat="46.27993" lon="6.63731">
        <ele>1108.7</ele>
        <time>2022-08-15T17:33:01Z</time>
      </trkpt>
      <trkpt lat="46.28002" lon="6.63739">
        <ele>1109.8</ele>
        <time>2022-08-15T17:33:06Z</time>
      </trkpt>
      <trkpt lat="46.28013" lon="6.63741">
        <ele>1111</ele>
        <time>2022-08-15T17:33:11Z</time>
      </trkpt>
      <trkpt lat="46.28024" lon="6.63742">
        <ele>1111.8</ele>
        <time>2022-08-15T17:33:16Z</time>
      </trkpt>
      <trkpt lat="46.28035" lon="6.63741">
        <ele>1112.7</ele>
        <time>2022-08-15T17:33:21Z</time>
      </trkpt>
      <trkpt lat="46.28046" lon="6.63741">
        <ele>1113.5</ele>
        <time>2022-08-15T17:33:26Z</time>
      </trkpt>
      <trkpt lat="46.28058" lon="6.6374">
        <ele>1114.5</ele>
        <time>2022-08-15T17:33:31Z</time>
      </trkpt>
      <trkpt lat="46.28069" lon="6.63742">
        <ele>1115.4</ele>
        <time>2022-08-15T17:33:36Z</time>
      </trkpt>
      <trkpt lat="46.2808" lon="6.63744">
        <ele>1116.5</ele>
        <time>2022-08-15T17:33:41Z</time>
      </trkpt>
      <trkpt lat="46.28092" lon="6.63747">
        <ele>1117.7</ele>
        <time>2022-08-15T17:33:46Z</time>
      </trkpt>
      <trkpt lat="46.28105" lon="6.63748">
        <ele>1119.3</ele>
        <time>2022-08-15T17:33:51Z</time>
      </trkpt>
      <trkpt lat="46.28118" lon="6.6375">
        <ele>1120.8</ele>
        <time>2022-08-15T17:33:56Z</time>
      </trkpt>
      <trkpt lat="46.28132" lon="6.63748">
        <ele>1122.5</ele>
        <time>2022-08-15T17:34:01Z</time>
      </trkpt>
      <trkpt lat="46.28146" lon="6.63744">
        <ele>1124.3</ele>
        <time>2022-08-15T17:34:06Z</time>
      </trkpt>
      <trkpt lat="46.2816" lon="6.63742">
        <ele>1125.9</ele>
        <time>2022-08-15T17:34:11Z</time>
      </trkpt>
      <trkpt lat="46.28172" lon="6.63743">
        <ele>1127.3</ele>
        <time>2022-08-15T17:34:16Z</time>
      </trkpt>
      <trkpt lat="46.28184" lon="6.63745">
        <ele>1127.7</ele>
        <time>2022-08-15T17:34:21Z</time>
      </trkpt>
      <trkpt lat="46.28196" lon="6.63747">
        <ele>1128.4</ele>
        <time>2022-08-15T17:34:26Z</time>
      </trkpt>
      <trkpt lat="46.28207" lon="6.63746">
        <ele>1129.6</ele>
        <time>2022-08-15T17:34:31Z</time>
      </trkpt>
      <trkpt lat="46.28218" lon="6.63748">
        <ele>1130.8</ele>
        <time>2022-08-15T17:34:36Z</time>
      </trkpt>
      <trkpt lat="46.28227" lon="6.63757">
        <ele>1132</ele>
        <time>2022-08-15T17:34:41Z</time>
      </trkpt>
      <trkpt lat="46.28234" lon="6.63766">
        <ele>1133.1</ele>
        <time>2022-08-15T17:34:46Z</time>
      </trkpt>
      <trkpt lat="46.28241" lon="6.6378">
        <ele>1134.3</ele>
        <time>2022-08-15T17:34:51Z</time>
      </trkpt>
      <trkpt lat="46.28245" lon="6.63795">
        <ele>1135.5</ele>
        <time>2022-08-15T17:34:56Z</time>
      </trkpt>
      <trkpt lat="46.28249" lon="6.63809">
        <ele>1136.5</ele>
        <time>2022-08-15T17:35:01Z</time>
      </trkpt>
      <trkpt lat="46.28252" lon="6.63824">
        <ele>1137.4</ele>
        <time>2022-08-15T17:35:06Z</time>
      </trkpt>
      <trkpt lat="46.28255" lon="6.6384">
        <ele>1138.5</ele>
        <time>2022-08-15T17:35:11Z</time>
      </trkpt>
      <trkpt lat="46.28257" lon="6.63854">
        <ele>1139.4</ele>
        <time>2022-08-15T17:35:16Z</time>
      </trkpt>
      <trkpt lat="46.28258" lon="6.63871">
        <ele>1140.4</ele>
        <time>2022-08-15T17:35:21Z</time>
      </trkpt>
      <trkpt lat="46.28261" lon="6.63887">
        <ele>1141.4</ele>
        <time>2022-08-15T17:35:26Z</time>
      </trkpt>
      <trkpt lat="46.28266" lon="6.63904">
        <ele>1142.7</ele>
        <time>2022-08-15T17:35:31Z</time>
      </trkpt>
      <trkpt lat="46.28266" lon="6.63922">
        <ele>1143.9</ele>
        <time>2022-08-15T17:35:36Z</time>
      </trkpt>
      <trkpt lat="46.28271" lon="6.63936">
        <ele>1145.1</ele>
        <time>2022-08-15T17:35:41Z</time>
      </trkpt>
      <trkpt lat="46.28276" lon="6.63952">
        <ele>1146.4</ele>
        <time>2022-08-15T17:35:46Z</time>
      </trkpt>
      <trkpt lat="46.28285" lon="6.63968">
        <ele>1148</ele>
        <time>2022-08-15T17:35:51Z</time>
      </trkpt>
      <trkpt lat="46.28294" lon="6.63982">
        <ele>1149.5</ele>
        <time>2022-08-15T17:35:56Z</time>
      </trkpt>
      <trkpt lat="46.28307" lon="6.63984">
        <ele>1150.9</ele>
        <time>2022-08-15T17:36:01Z</time>
      </trkpt>
      <trkpt lat="46.28319" lon="6.6398">
        <ele>1152.4</ele>
        <time>2022-08-15T17:36:06Z</time>
      </trkpt>
      <trkpt lat="46.28332" lon="6.63974">
        <ele>1154</ele>
        <time>2022-08-15T17:36:11Z</time>
      </trkpt>
      <trkpt lat="46.28342" lon="6.63964">
        <ele>1155.5</ele>
        <time>2022-08-15T17:36:16Z</time>
      </trkpt>
      <trkpt lat="46.28353" lon="6.63956">
        <ele>1156.9</ele>
        <time>2022-08-15T17:36:21Z</time>
      </trkpt>
      <trkpt lat="46.28363" lon="6.63951">
        <ele>1157.7</ele>
        <time>2022-08-15T17:36:26Z</time>
      </trkpt>
      <trkpt lat="46.28368" lon="6.63956">
        <ele>1158</ele>
        <time>2022-08-15T17:36:31Z</time>
      </trkpt>
      <trkpt lat="46.28378" lon="6.63967">
        <ele>1158.5</ele>
        <time>2022-08-15T17:36:36Z</time>
      </trkpt>
      <trkpt lat="46.28388" lon="6.63977">
        <ele>1159.2</ele>
        <time>2022-08-15T17:36:41Z</time>
      </trkpt>
      <trkpt lat="46.28396" lon="6.6399">
        <ele>1159.8</ele>
        <time>2022-08-15T17:36:46Z</time>
      </trkpt>
      <trkpt lat="46.28402" lon="6.64">
        <ele>1160.3</ele>
        <time>2022-08-15T17:36:51Z</time>
      </trkpt>
      <trkpt lat="46.28411" lon="6.64011">
        <ele>1161</ele>
        <time>2022-08-15T17:36:56Z</time>
      </trkpt>
      <trkpt lat="46.28422" lon="6.64019">
        <ele>1161.7</ele>
        <time>2022-08-15T17:37:01Z</time>
      </trkpt>
      <trkpt lat="46.28432" lon="6.64027">
        <ele>1162.5</ele>
        <time>2022-08-15T17:37:06Z</time>
      </trkpt>
      <trkpt lat="46.28443" lon="6.64033">
        <ele>1163.5</ele>
        <time>2022-08-15T17:37:11Z</time>
      </trkpt>
      <trkpt lat="46.28454" lon="6.6404">
        <ele>1164.6</ele>
        <time>2022-08-15T17:37:16Z</time>
      </trkpt>
      <trkpt lat="46.28464" lon="6.64046">
        <ele>1165.8</ele>
        <time>2022-08-15T17:37:21Z</time>
      </trkpt>
      <trkpt lat="46.28475" lon="6.64051">
        <ele>1167.3</ele>
        <time>2022-08-15T17:37:26Z</time>
      </trkpt>
      <trkpt lat="46.28484" lon="6.64053">
        <ele>1168.8</ele>
        <time>2022-08-15T17:37:31Z</time>
      </trkpt>
      <trkpt lat="46.28498" lon="6.64055">
        <ele>1171.2</ele>
        <time>2022-08-15T17:37:36Z</time>
      </trkpt>
      <trkpt lat="46.28514" lon="6.64046">
        <ele>1174.2</ele>
        <time>2022-08-15T17:37:41Z</time>
      </trkpt>
      <trkpt lat="46.28516" lon="6.64023">
        <ele>1175.8</ele>
        <time>2022-08-15T17:37:46Z</time>
      </trkpt>
      <trkpt lat="46.28511" lon="6.64003">
        <ele>1176.9</ele>
        <time>2022-08-15T17:37:51Z</time>
      </trkpt>
      <trkpt lat="46.28508" lon="6.63985">
        <ele>1178.1</ele>
        <time>2022-08-15T17:37:56Z</time>
      </trkpt>
      <trkpt lat="46.28511" lon="6.63968">
        <ele>1179.6</ele>
        <time>2022-08-15T17:38:01Z</time>
      </trkpt>
      <trkpt lat="46.28522" lon="6.63969">
        <ele>1181.4</ele>
        <time>2022-08-15T17:38:06Z</time>
      </trkpt>
      <trkpt lat="46.28531" lon="6.63981">
        <ele>1183.4</ele>
        <time>2022-08-15T17:38:11Z</time>
      </trkpt>
      <trkpt lat="46.28534" lon="6.63995">
        <ele>1184.6</ele>
        <time>2022-08-15T17:38:16Z</time>
      </trkpt>
      <trkpt lat="46.28541" lon="6.64011">
        <ele>1185.5</ele>
        <time>2022-08-15T17:38:21Z</time>
      </trkpt>
      <trkpt lat="46.28546" lon="6.64026">
        <ele>1186</ele>
        <time>2022-08-15T17:38:26Z</time>
      </trkpt>
      <trkpt lat="46.28553" lon="6.64043">
        <ele>1186.7</ele>
        <time>2022-08-15T17:38:31Z</time>
      </trkpt>
      <trkpt lat="46.28559" lon="6.64056">
        <ele>1187.6</ele>
        <time>2022-08-15T17:38:36Z</time>
      </trkpt>
      <trkpt lat="46.28568" lon="6.64075">
        <ele>1189.4</ele>
        <time>2022-08-15T17:38:41Z</time>
      </trkpt>
      <trkpt lat="46.28573" lon="6.64093">
        <ele>1191.5</ele>
        <time>2022-08-15T17:38:46Z</time>
      </trkpt>
      <trkpt lat="46.28568" lon="6.64109">
        <ele>1193.4</ele>
        <time>2022-08-15T17:38:51Z</time>
      </trkpt>
      <trkpt lat="46.2856" lon="6.64117">
        <ele>1194.8</ele>
        <time>2022-08-15T17:38:56Z</time>
      </trkpt>
      <trkpt lat="46.28547" lon="6.64119">
        <ele>1196</ele>
        <time>2022-08-15T17:39:01Z</time>
      </trkpt>
      <trkpt lat="46.28536" lon="6.64125">
        <ele>1196.7</ele>
        <time>2022-08-15T17:39:06Z</time>
      </trkpt>
      <trkpt lat="46.28525" lon="6.64124">
        <ele>1197.2</ele>
        <time>2022-08-15T17:39:11Z</time>
      </trkpt>
      <trkpt lat="46.28517" lon="6.64124">
        <ele>1197.6</ele>
        <time>2022-08-15T17:39:16Z</time>
      </trkpt>
      <trkpt lat="46.28502" lon="6.64114">
        <ele>1198.5</ele>
        <time>2022-08-15T17:39:21Z</time>
      </trkpt>
      <trkpt lat="46.2849" lon="6.64111">
        <ele>1199.5</ele>
        <time>2022-08-15T17:39:26Z</time>
      </trkpt>
      <trkpt lat="46.28478" lon="6.64109">
        <ele>1200.8</ele>
        <time>2022-08-15T17:39:31Z</time>
      </trkpt>
      <trkpt lat="46.28465" lon="6.64109">
        <ele>1202.3</ele>
        <time>2022-08-15T17:39:36Z</time>
      </trkpt>
      <trkpt lat="46.28451" lon="6.64111">
        <ele>1204.2</ele>
        <time>2022-08-15T17:39:41Z</time>
      </trkpt>
      <trkpt lat="46.28439" lon="6.64117">
        <ele>1205.9</ele>
        <time>2022-08-15T17:39:46Z</time>
      </trkpt>
      <trkpt lat="46.28425" lon="6.64131">
        <ele>1207.9</ele>
        <time>2022-08-15T17:39:51Z</time>
      </trkpt>
      <trkpt lat="46.28416" lon="6.64156">
        <ele>1209.7</ele>
        <time>2022-08-15T17:39:56Z</time>
      </trkpt>
      <trkpt lat="46.28406" lon="6.64171">
        <ele>1210.9</ele>
        <time>2022-08-15T17:40:01Z</time>
      </trkpt>
      <trkpt lat="46.28397" lon="6.64184">
        <ele>1212.1</ele>
        <time>2022-08-15T17:40:06Z</time>
      </trkpt>
      <trkpt lat="46.28385" lon="6.64196">
        <ele>1213.5</ele>
        <time>2022-08-15T17:40:11Z</time>
      </trkpt>
      <trkpt lat="46.28374" lon="6.64207">
        <ele>1215</ele>
        <time>2022-08-15T17:40:16Z</time>
      </trkpt>
      <trkpt lat="46.28363" lon="6.64217">
        <ele>1216.4</ele>
        <time>2022-08-15T17:40:21Z</time>
      </trkpt>
      <trkpt lat="46.28354" lon="6.64228">
        <ele>1217.8</ele>
        <time>2022-08-15T17:40:26Z</time>
      </trkpt>
      <trkpt lat="46.28345" lon="6.64244">
        <ele>1219.4</ele>
        <time>2022-08-15T17:40:31Z</time>
      </trkpt>
      <trkpt lat="46.28337" lon="6.64261">
        <ele>1221</ele>
        <time>2022-08-15T17:40:36Z</time>
      </trkpt>
      <trkpt lat="46.2833" lon="6.64283">
        <ele>1222.7</ele>
        <time>2022-08-15T17:40:41Z</time>
      </trkpt>
      <trkpt lat="46.28327" lon="6.64308">
        <ele>1224.6</ele>
        <time>2022-08-15T17:40:46Z</time>
      </trkpt>
      <trkpt lat="46.28331" lon="6.64331">
        <ele>1226.2</ele>
        <time>2022-08-15T17:40:51Z</time>
      </trkpt>
      <trkpt lat="46.28335" lon="6.64354">
        <ele>1227.9</ele>
        <time>2022-08-15T17:40:56Z</time>
      </trkpt>
      <trkpt lat="46.28344" lon="6.64378">
        <ele>1230</ele>
        <time>2022-08-15T17:41:01Z</time>
      </trkpt>
      <trkpt lat="46.28355" lon="6.64402">
        <ele>1231.2</ele>
        <time>2022-08-15T17:41:06Z</time>
      </trkpt>
      <trkpt lat="46.28366" lon="6.64425">
        <ele>1232.4</ele>
        <time>2022-08-15T17:41:11Z</time>
      </trkpt>
      <trkpt lat="46.28376" lon="6.64449">
        <ele>1233.3</ele>
        <time>2022-08-15T17:41:16Z</time>
      </trkpt>
      <trkpt lat="46.28384" lon="6.64464">
        <ele>1233.8</ele>
        <time>2022-08-15T17:41:20Z</time>
      </trkpt>
      <trkpt lat="46.28383" lon="6.64463">
        <ele>1233.8</ele>
        <time>2022-08-15T17:41:21Z</time>
      </trkpt>
      <trkpt lat="46.2838" lon="6.64447">
        <ele>1233.4</ele>
        <time>2022-08-15T17:41:26Z</time>
      </trkpt>
      <trkpt lat="46.28364" lon="6.64415">
        <ele>1232</ele>
        <time>2022-08-15T17:41:31Z</time>
      </trkpt>
      <trkpt lat="46.28344" lon="6.64374">
        <ele>1229.8</ele>
        <time>2022-08-15T17:41:36Z</time>
      </trkpt>
      <trkpt lat="46.28329" lon="6.64315">
        <ele>1225</ele>
        <time>2022-08-15T17:41:41Z</time>
      </trkpt>
      <trkpt lat="46.28349" lon="6.64241">
        <ele>1218.8</ele>
        <time>2022-08-15T17:41:46Z</time>
      </trkpt>
      <trkpt lat="46.28389" lon="6.64181">
        <ele>1212.1</ele>
        <time>2022-08-15T17:41:51Z</time>
      </trkpt>
      <trkpt lat="46.28425" lon="6.64118">
        <ele>1206.3</ele>
        <time>2022-08-15T17:41:56Z</time>
      </trkpt>
      <trkpt lat="46.28476" lon="6.64072">
        <ele>1193.9</ele>
        <time>2022-08-15T17:42:01Z</time>
      </trkpt>
      <trkpt lat="46.28527" lon="6.64042">
        <ele>1193.2</ele>
        <time>2022-08-15T17:42:06Z</time>
      </trkpt>
      <trkpt lat="46.2853" lon="6.63985">
        <ele>1185</ele>
        <time>2022-08-15T17:42:11Z</time>
      </trkpt>
      <trkpt lat="46.28514" lon="6.63936">
        <ele>1180.9</ele>
        <time>2022-08-15T17:42:16Z</time>
      </trkpt>
      <trkpt lat="46.28505" lon="6.63981">
        <ele>1177.3</ele>
        <time>2022-08-15T17:42:21Z</time>
      </trkpt>
      <trkpt lat="46.28516" lon="6.64038">
        <ele>1174.5</ele>
        <time>2022-08-15T17:42:26Z</time>
      </trkpt>
      <trkpt lat="46.28499" lon="6.64076">
        <ele>1170</ele>
        <time>2022-08-15T17:42:31Z</time>
      </trkpt>
      <trkpt lat="46.28447" lon="6.64064">
        <ele>1164.1</ele>
        <time>2022-08-15T17:42:36Z</time>
      </trkpt>
      <trkpt lat="46.28398" lon="6.64009">
        <ele>1160.4</ele>
        <time>2022-08-15T17:42:41Z</time>
      </trkpt>
      <trkpt lat="46.28359" lon="6.63994">
        <ele>1157.3</ele>
        <time>2022-08-15T17:42:46Z</time>
      </trkpt>
      <trkpt lat="46.28312" lon="6.64002">
        <ele>1151.2</ele>
        <time>2022-08-15T17:42:51Z</time>
      </trkpt>
      <trkpt lat="46.28286" lon="6.63956">
        <ele>1147.3</ele>
        <time>2022-08-15T17:42:56Z</time>
      </trkpt>
      <trkpt lat="46.28262" lon="6.63871">
        <ele>1140.2</ele>
        <time>2022-08-15T17:43:01Z</time>
      </trkpt>
      <trkpt lat="46.28238" lon="6.63794">
        <ele>1134.1</ele>
        <time>2022-08-15T17:43:06Z</time>
      </trkpt>
      <trkpt lat="46.28184" lon="6.63776">
        <ele>1127.5</ele>
        <time>2022-08-15T17:43:11Z</time>
      </trkpt>
      <trkpt lat="46.28118" lon="6.63775">
        <ele>1121.2</ele>
        <time>2022-08-15T17:43:16Z</time>
      </trkpt>
      <trkpt lat="46.28049" lon="6.63767">
        <ele>1113.9</ele>
        <time>2022-08-15T17:43:21Z</time>
      </trkpt>
      <trkpt lat="46.27999" lon="6.6374">
        <ele>1109.4</ele>
        <time>2022-08-15T17:43:26Z</time>
      </trkpt>
      <trkpt lat="46.27953" lon="6.63698">
        <ele>1102.2</ele>
        <time>2022-08-15T17:43:31Z</time>
      </trkpt>
      <trkpt lat="46.27896" lon="6.63693">
        <ele>1096.9</ele>
        <time>2022-08-15T17:43:36Z</time>
      </trkpt>
      <trkpt lat="46.27887" lon="6.6366">
        <ele>1093.9</ele>
        <time>2022-08-15T17:43:41Z</time>
      </trkpt>
      <trkpt lat="46.27932" lon="6.63654">
        <ele>1086.3</ele>
        <time>2022-08-15T17:43:46Z</time>
      </trkpt>
      <trkpt lat="46.27986" lon="6.63642">
        <ele>1081.4</ele>
        <time>2022-08-15T17:43:51Z</time>
      </trkpt>
      <trkpt lat="46.28039" lon="6.63612">
        <ele>1076.1</ele>
        <time>2022-08-15T17:43:56Z</time>
      </trkpt>
      <trkpt lat="46.28064" lon="6.63534">
        <ele>1070.2</ele>
        <time>2022-08-15T17:44:01Z</time>
      </trkpt>
      <trkpt lat="46.28091" lon="6.63447">
        <ele>1066.3</ele>
        <time>2022-08-15T17:44:06Z</time>
      </trkpt>
      <trkpt lat="46.28121" lon="6.63359">
        <ele>1059.5</ele>
        <time>2022-08-15T17:44:11Z</time>
      </trkpt>
      <trkpt lat="46.28141" lon="6.63285">
        <ele>1053.6</ele>
        <time>2022-08-15T17:44:16Z</time>
      </trkpt>
      <trkpt lat="46.28095" lon="6.63237">
        <ele>1047.1</ele>
        <time>2022-08-15T17:44:21Z</time>
      </trkpt>
      <trkpt lat="46.28034" lon="6.6321">
        <ele>1040.9</ele>
        <time>2022-08-15T17:44:26Z</time>
      </trkpt>
      <trkpt lat="46.27972" lon="6.63163">
        <ele>1032.5</ele>
        <time>2022-08-15T17:44:31Z</time>
      </trkpt>
      <trkpt lat="46.27914" lon="6.63122">
        <ele>1024.9</ele>
        <time>2022-08-15T17:44:36Z</time>
      </trkpt>
      <trkpt lat="46.27842" lon="6.6313">
        <ele>1017.1</ele>
        <time>2022-08-15T17:44:41Z</time>
      </trkpt>
      <trkpt lat="46.27778" lon="6.63157">
        <ele>1010</ele>
        <time>2022-08-15T17:44:46Z</time>
      </trkpt>
      <trkpt lat="46.2773" lon="6.6322">
        <ele>1003.5</ele>
        <time>2022-08-15T17:44:51Z</time>
      </trkpt>
      <trkpt lat="46.27687" lon="6.63267">
        <ele>997.1</ele>
        <time>2022-08-15T17:44:56Z</time>
      </trkpt>
      <trkpt lat="46.27619" lon="6.63252">
        <ele>990.1</ele>
        <time>2022-08-15T17:45:01Z</time>
      </trkpt>
      <trkpt lat="46.2757" lon="6.63181">
        <ele>983.6</ele>
        <time>2022-08-15T17:45:06Z</time>
      </trkpt>
      <trkpt lat="46.27547" lon="6.63132">
        <ele>980.5</ele>
        <time>2022-08-15T17:45:11Z</time>
      </trkpt>
      <trkpt lat="46.27523" lon="6.63179">
        <ele>975.2</ele>
        <time>2022-08-15T17:45:16Z</time>
      </trkpt>
      <trkpt lat="46.27498" lon="6.6324">
        <ele>970.2</ele>
        <time>2022-08-15T17:45:21Z</time>
      </trkpt>
      <trkpt lat="46.2746" lon="6.63268">
        <ele>965.7</ele>
        <time>2022-08-15T17:45:26Z</time>
      </trkpt>
      <trkpt lat="46.27409" lon="6.63304">
        <ele>960</ele>
        <time>2022-08-15T17:45:31Z</time>
      </trkpt>
      <trkpt lat="46.27354" lon="6.63318">
        <ele>952</ele>
        <time>2022-08-15T17:45:36Z</time>
      </trkpt>
      <trkpt lat="46.27282" lon="6.6331">
        <ele>942.6</ele>
        <time>2022-08-15T17:45:41Z</time>
      </trkpt>
      <trkpt lat="46.27213" lon="6.633">
        <ele>935.5</ele>
        <time>2022-08-15T17:45:46Z</time>
      </trkpt>
      <trkpt lat="46.27147" lon="6.63278">
        <ele>929.6</ele>
        <time>2022-08-15T17:45:51Z</time>
      </trkpt>
      <trkpt lat="46.2708" lon="6.63249">
        <ele>923.8</ele>
        <time>2022-08-15T17:45:56Z</time>
      </trkpt>
      <trkpt lat="46.27012" lon="6.63238">
        <ele>919.7</ele>
        <time>2022-08-15T17:46:01Z</time>
      </trkpt>
      <trkpt lat="46.26949" lon="6.63219">
        <ele>914.9</ele>
        <time>2022-08-15T17:46:06Z</time>
      </trkpt>
      <trkpt lat="46.26897" lon="6.63229">
        <ele>909.2</ele>
        <time>2022-08-15T17:46:11Z</time>
      </trkpt>
      <trkpt lat="46.26851" lon="6.63265">
        <ele>906.4</ele>
        <time>2022-08-15T17:46:16Z</time>
      </trkpt>
      <trkpt lat="46.26836" lon="6.63346">
        <ele>903.3</ele>
        <time>2022-08-15T17:46:21Z</time>
      </trkpt>
      <trkpt lat="46.26815" lon="6.63396">
        <ele>900.2</ele>
        <time>2022-08-15T17:46:26Z</time>
      </trkpt>
      <trkpt lat="46.2678" lon="6.6338">
        <ele>897</ele>
        <time>2022-08-15T17:46:31Z</time>
      </trkpt>
      <trkpt lat="46.26727" lon="6.63343">
        <ele>891.5</ele>
        <time>2022-08-15T17:46:36Z</time>
      </trkpt>
      <trkpt lat="46.26663" lon="6.633">
        <ele>884.2</ele>
        <time>2022-08-15T17:46:41Z</time>
      </trkpt>
      <trkpt lat="46.266" lon="6.63284">
        <ele>876.2</ele>
        <time>2022-08-15T17:46:46Z</time>
      </trkpt>
      <trkpt lat="46.26532" lon="6.6331">
        <ele>868.6</ele>
        <time>2022-08-15T17:46:51Z</time>
      </trkpt>
      <trkpt lat="46.26454" lon="6.63323">
        <ele>861.1</ele>
        <time>2022-08-15T17:46:56Z</time>
      </trkpt>
      <trkpt lat="46.26374" lon="6.6333">
        <ele>852.3</ele>
        <time>2022-08-15T17:47:01Z</time>
      </trkpt>
      <trkpt lat="46.26297" lon="6.63352">
        <ele>844</ele>
        <time>2022-08-15T17:47:06Z</time>
      </trkpt>
      <trkpt lat="46.26226" lon="6.63376">
        <ele>838.4</ele>
        <time>2022-08-15T17:47:11Z</time>
      </trkpt>
      <trkpt lat="46.26173" lon="6.63407">
        <ele>835.4</ele>
        <time>2022-08-15T17:47:16Z</time>
      </trkpt>
      <trkpt lat="46.26152" lon="6.63371">
        <ele>834.8</ele>
        <time>2022-08-15T17:47:21Z</time>
      </trkpt>
      <trkpt lat="46.26126" lon="6.63321">
        <ele>832.6</ele>
        <time>2022-08-15T17:47:26Z</time>
      </trkpt>
      <trkpt lat="46.26085" lon="6.63274">
        <ele>826.6</ele>
        <time>2022-08-15T17:47:31Z</time>
      </trkpt>
      <trkpt lat="46.26028" lon="6.63236">
        <ele>820.5</ele>
        <time>2022-08-15T17:47:36Z</time>
      </trkpt>
      <trkpt lat="46.2597" lon="6.63196">
        <ele>814.6</ele>
        <time>2022-08-15T17:47:41Z</time>
      </trkpt>
      <trkpt lat="46.25938" lon="6.63126">
        <ele>809.4</ele>
        <time>2022-08-15T17:47:46Z</time>
      </trkpt>
      <trkpt lat="46.25906" lon="6.63048">
        <ele>803.9</ele>
        <time>2022-08-15T17:47:51Z</time>
      </trkpt>
      <trkpt lat="46.25858" lon="6.63007">
        <ele>799.1</ele>
        <time>2022-08-15T17:47:56Z</time>
      </trkpt>
      <trkpt lat="46.25814" lon="6.63045">
        <ele>792.6</ele>
        <time>2022-08-15T17:48:01Z</time>
      </trkpt>
      <trkpt lat="46.25769" lon="6.63097">
        <ele>788.6</ele>
        <time>2022-08-15T17:48:06Z</time>
      </trkpt>
      <trkpt lat="46.25727" lon="6.63074">
        <ele>784.1</ele>
        <time>2022-08-15T17:48:11Z</time>
      </trkpt>
      <trkpt lat="46.25679" lon="6.63066">
        <ele>779.9</ele>
        <time>2022-08-15T17:48:16Z</time>
      </trkpt>
      <trkpt lat="46.25639" lon="6.63112">
        <ele>773.9</ele>
        <time>2022-08-15T17:48:21Z</time>
      </trkpt>
      <trkpt lat="46.25593" lon="6.63122">
        <ele>768.4</ele>
        <time>2022-08-15T17:48:26Z</time>
      </trkpt>
      <trkpt lat="46.25526" lon="6.63108">
        <ele>762.6</ele>
        <time>2022-08-15T17:48:31Z</time>
      </trkpt>
      <trkpt lat="46.25481" lon="6.63072">
        <ele>759.5</ele>
        <time>2022-08-15T17:48:36Z</time>
      </trkpt>
      <trkpt lat="46.25431" lon="6.63084">
        <ele>753.4</ele>
        <time>2022-08-15T17:48:41Z</time>
      </trkpt>
      <trkpt lat="46.25375" lon="6.63088">
        <ele>746.8</ele>
        <time>2022-08-15T17:48:46Z</time>
      </trkpt>
      <trkpt lat="46.2531" lon="6.63079">
        <ele>740.7</ele>
        <time>2022-08-15T17:48:51Z</time>
      </trkpt>
      <trkpt lat="46.2524" lon="6.6308">
        <ele>734.8</ele>
        <time>2022-08-15T17:48:56Z</time>
      </trkpt>
      <trkpt lat="46.25181" lon="6.63109">
        <ele>731.3</ele>
        <time>2022-08-15T17:49:01Z</time>
      </trkpt>
      <trkpt lat="46.25134" lon="6.63153">
        <ele>728.9</ele>
        <time>2022-08-15T17:49:06Z</time>
      </trkpt>
      <trkpt lat="46.25125" lon="6.63149">
        <ele>727.6</ele>
        <time>2022-08-15T17:49:11Z</time>
      </trkpt>
      <trkpt lat="46.25145" lon="6.6312">
        <ele>726.8</ele>
        <time>2022-08-15T17:49:16Z</time>
      </trkpt>
      <trkpt lat="46.25165" lon="6.63074">
        <ele>726.2</ele>
        <time>2022-08-15T17:49:21Z</time>
      </trkpt>
      <trkpt lat="46.25198" lon="6.63043">
        <ele>725.7</ele>
        <time>2022-08-15T17:49:26Z</time>
      </trkpt>
      <trkpt lat="46.25239" lon="6.63022">
        <ele>725.2</ele>
        <time>2022-08-15T17:49:31Z</time>
      </trkpt>
      <trkpt lat="46.25277" lon="6.63001">
        <ele>724.9</ele>
        <time>2022-08-15T17:49:36Z</time>
      </trkpt>
      <trkpt lat="46.25309" lon="6.62975">
        <ele>724.6</ele>
        <time>2022-08-15T17:49:41Z</time>
      </trkpt>
      <trkpt lat="46.25346" lon="6.62952">
        <ele>724.2</ele>
        <time>2022-08-15T17:49:46Z</time>
      </trkpt>
      <trkpt lat="46.25389" lon="6.62944">
        <ele>723.6</ele>
        <time>2022-08-15T17:49:51Z</time>
      </trkpt>
      <trkpt lat="46.25432" lon="6.62946">
        <ele>722.5</ele>
        <time>2022-08-15T17:49:56Z</time>
      </trkpt>
      <trkpt lat="46.2547" lon="6.62939">
        <ele>721.4</ele>
        <time>2022-08-15T17:50:01Z</time>
      </trkpt>
      <trkpt lat="46.25511" lon="6.62913">
        <ele>720.1</ele>
        <time>2022-08-15T17:50:06Z</time>
      </trkpt>
      <trkpt lat="46.25547" lon="6.62866">
        <ele>719</ele>
        <time>2022-08-15T17:50:11Z</time>
      </trkpt>
      <trkpt lat="46.25577" lon="6.62816">
        <ele>718.7</ele>
        <time>2022-08-15T17:50:16Z</time>
      </trkpt>
      <trkpt lat="46.25605" lon="6.62763">
        <ele>718.3</ele>
        <time>2022-08-15T17:50:21Z</time>
      </trkpt>
      <trkpt lat="46.25612" lon="6.62706">
        <ele>718.1</ele>
        <time>2022-08-15T17:50:26Z</time>
      </trkpt>
      <trkpt lat="46.256" lon="6.62654">
        <ele>718.3</ele>
        <time>2022-08-15T17:50:31Z</time>
      </trkpt>
      <trkpt lat="46.25602" lon="6.62594">
        <ele>718.7</ele>
        <time>2022-08-15T17:50:36Z</time>
      </trkpt>
      <trkpt lat="46.25626" lon="6.62551">
        <ele>719.2</ele>
        <time>2022-08-15T17:50:41Z</time>
      </trkpt>
      <trkpt lat="46.25655" lon="6.6253">
        <ele>719.4</ele>
        <time>2022-08-15T17:50:46Z</time>
      </trkpt>
      <trkpt lat="46.25673" lon="6.62516">
        <ele>720</ele>
        <time>2022-08-15T17:50:51Z</time>
      </trkpt>
      <trkpt lat="46.25679" lon="6.62499">
        <ele>721</ele>
        <time>2022-08-15T17:50:56Z</time>
      </trkpt>
      <trkpt lat="46.25691" lon="6.62488">
        <ele>721.6</ele>
        <time>2022-08-15T17:51:01Z</time>
      </trkpt>
      <trkpt lat="46.2571" lon="6.62477">
        <ele>722.6</ele>
        <time>2022-08-15T17:51:06Z</time>
      </trkpt>
      <trkpt lat="46.25725" lon="6.62466">
        <ele>724</ele>
        <time>2022-08-15T17:51:11Z</time>
      </trkpt>
      <trkpt lat="46.25739" lon="6.62457">
        <ele>725.6</ele>
        <time>2022-08-15T17:51:16Z</time>
      </trkpt>
      <trkpt lat="46.25749" lon="6.62446">
        <ele>727</ele>
        <time>2022-08-15T17:51:21Z</time>
      </trkpt>
      <trkpt lat="46.2576" lon="6.62437">
        <ele>728.4</ele>
        <time>2022-08-15T17:51:26Z</time>
      </trkpt>
      <trkpt lat="46.25772" lon="6.62428">
        <ele>730.2</ele>
        <time>2022-08-15T17:51:31Z</time>
      </trkpt>
      <trkpt lat="46.25778" lon="6.62415">
        <ele>731.7</ele>
        <time>2022-08-15T17:51:36Z</time>
      </trkpt>
      <trkpt lat="46.2578" lon="6.62401">
        <ele>733.3</ele>
        <time>2022-08-15T17:51:41Z</time>
      </trkpt>
      <trkpt lat="46.25775" lon="6.62386">
        <ele>735</ele>
        <time>2022-08-15T17:51:46Z</time>
      </trkpt>
      <trkpt lat="46.25768" lon="6.62383">
        <ele>735.8</ele>
        <time>2022-08-15T17:51:51Z</time>
      </trkpt>
      <trkpt lat="46.2576" lon="6.62389">
        <ele>736.5</ele>
        <time>2022-08-15T17:51:56Z</time>
      </trkpt>
      <trkpt lat="46.2575" lon="6.62397">
        <ele>737.1</ele>
        <time>2022-08-15T17:52:01Z</time>
      </trkpt>
      <trkpt lat="46.25741" lon="6.62406">
        <ele>737.7</ele>
        <time>2022-08-15T17:52:06Z</time>
      </trkpt>
      <trkpt lat="46.25733" lon="6.62412">
        <ele>738.3</ele>
        <time>2022-08-15T17:52:11Z</time>
      </trkpt>
      <trkpt lat="46.25723" lon="6.62417">
        <ele>739.1</ele>
        <time>2022-08-15T17:52:16Z</time>
      </trkpt>
      <trkpt lat="46.2571" lon="6.62423">
        <ele>740.3</ele>
        <time>2022-08-15T17:52:21Z</time>
      </trkpt>
      <trkpt lat="46.25699" lon="6.62431">
        <ele>741.4</ele>
        <time>2022-08-15T17:52:26Z</time>
      </trkpt>
      <trkpt lat="46.25688" lon="6.62436">
        <ele>742.6</ele>
        <time>2022-08-15T17:52:31Z</time>
      </trkpt>
      <trkpt lat="46.25678" lon="6.62441">
        <ele>743.7</ele>
        <time>2022-08-15T17:52:36Z</time>
      </trkpt>
      <trkpt lat="46.25668" lon="6.62445">
        <ele>744.9</ele>
        <time>2022-08-15T17:52:41Z</time>
      </trkpt>
      <trkpt lat="46.25659" lon="6.62451">
        <ele>746.1</ele>
        <time>2022-08-15T17:52:46Z</time>
      </trkpt>
      <trkpt lat="46.25647" lon="6.62457">
        <ele>747.6</ele>
        <time>2022-08-15T17:52:51Z</time>
      </trkpt>
      <trkpt lat="46.25636" lon="6.62464">
        <ele>749</ele>
        <time>2022-08-15T17:52:56Z</time>
      </trkpt>
      <trkpt lat="46.25629" lon="6.62472">
        <ele>750.1</ele>
        <time>2022-08-15T17:53:01Z</time>
      </trkpt>
      <trkpt lat="46.25622" lon="6.62481">
        <ele>751.2</ele>
        <time>2022-08-15T17:53:06Z</time>
      </trkpt>
      <trkpt lat="46.25613" lon="6.62486">
        <ele>752.6</ele>
        <time>2022-08-15T17:53:11Z</time>
      </trkpt>
      <trkpt lat="46.25605" lon="6.62494">
        <ele>753.8</ele>
        <time>2022-08-15T17:53:16Z</time>
      </trkpt>
      <trkpt lat="46.256" lon="6.62501">
        <ele>754.7</ele>
        <time>2022-08-15T17:53:21Z</time>
      </trkpt>
      <trkpt lat="46.2559" lon="6.62512">
        <ele>756.5</ele>
        <time>2022-08-15T17:53:26Z</time>
      </trkpt>
      <trkpt lat="46.25579" lon="6.6252">
        <ele>758</ele>
        <time>2022-08-15T17:53:31Z</time>
      </trkpt>
      <trkpt lat="46.25567" lon="6.6253">
        <ele>759.9</ele>
        <time>2022-08-15T17:53:36Z</time>
      </trkpt>
      <trkpt lat="46.25554" lon="6.62535">
        <ele>761.6</ele>
        <time>2022-08-15T17:53:41Z</time>
      </trkpt>
      <trkpt lat="46.25542" lon="6.62536">
        <ele>762.9</ele>
        <time>2022-08-15T17:53:46Z</time>
      </trkpt>
      <trkpt lat="46.25532" lon="6.62531">
        <ele>764</ele>
        <time>2022-08-15T17:53:51Z</time>
      </trkpt>
      <trkpt lat="46.25521" lon="6.62527">
        <ele>764.9</ele>
        <time>2022-08-15T17:53:56Z</time>
      </trkpt>
      <trkpt lat="46.25512" lon="6.62522">
        <ele>765.7</ele>
        <time>2022-08-15T17:54:01Z</time>
      </trkpt>
      <trkpt lat="46.25501" lon="6.62517">
        <ele>766.6</ele>
        <time>2022-08-15T17:54:06Z</time>
      </trkpt>
      <trkpt lat="46.25494" lon="6.62516">
        <ele>767.2</ele>
        <time>2022-08-15T17:54:11Z</time>
      </trkpt>
      <trkpt lat="46.25485" lon="6.62515">
        <ele>767.9</ele>
        <time>2022-08-15T17:54:16Z</time>
      </trkpt>
      <trkpt lat="46.25469" lon="6.6251">
        <ele>769.3</ele>
        <time>2022-08-15T17:54:21Z</time>
      </trkpt>
      <trkpt lat="46.25452" lon="6.62512">
        <ele>771</ele>
        <time>2022-08-15T17:54:26Z</time>
      </trkpt>
      <trkpt lat="46.25436" lon="6.62515">
        <ele>772.7</ele>
        <time>2022-08-15T17:54:31Z</time>
      </trkpt>
      <trkpt lat="46.25423" lon="6.62522">
        <ele>774</ele>
        <time>2022-08-15T17:54:36Z</time>
      </trkpt>
      <trkpt lat="46.2541" lon="6.62527">
        <ele>775.4</ele>
        <time>2022-08-15T17:54:41Z</time>
      </trkpt>
      <trkpt lat="46.25398" lon="6.62535">
        <ele>776.6</ele>
        <time>2022-08-15T17:54:46Z</time>
      </trkpt>
      <trkpt lat="46.25386" lon="6.62543">
        <ele>777.8</ele>
        <time>2022-08-15T17:54:51Z</time>
      </trkpt>
      <trkpt lat="46.25374" lon="6.6255">
        <ele>779.2</ele>
        <time>2022-08-15T17:54:56Z</time>
      </trkpt>
      <trkpt lat="46.25363" lon="6.62558">
        <ele>780.6</ele>
        <time>2022-08-15T17:55:01Z</time>
      </trkpt>
      <trkpt lat="46.25353" lon="6.62565">
        <ele>782.1</ele>
        <time>2022-08-15T17:55:06Z</time>
      </trkpt>
      <trkpt lat="46.25342" lon="6.62571">
        <ele>784</ele>
        <time>2022-08-15T17:55:11Z</time>
      </trkpt>
      <trkpt lat="46.25329" lon="6.62568">
        <ele>785.8</ele>
        <time>2022-08-15T17:55:16Z</time>
      </trkpt>
      <trkpt lat="46.25319" lon="6.62559">
        <ele>787.4</ele>
        <time>2022-08-15T17:55:21Z</time>
      </trkpt>
      <trkpt lat="46.25312" lon="6.62544">
        <ele>788.9</ele>
        <time>2022-08-15T17:55:26Z</time>
      </trkpt>
      <trkpt lat="46.25311" lon="6.62528">
        <ele>790</ele>
        <time>2022-08-15T17:55:31Z</time>
      </trkpt>
      <trkpt lat="46.25312" lon="6.62512">
        <ele>791</ele>
        <time>2022-08-15T17:55:36Z</time>
      </trkpt>
      <trkpt lat="46.25315" lon="6.62496">
        <ele>791.7</ele>
        <time>2022-08-15T17:55:41Z</time>
      </trkpt>
      <trkpt lat="46.25319" lon="6.62481">
        <ele>792.5</ele>
        <time>2022-08-15T17:55:46Z</time>
      </trkpt>
      <trkpt lat="46.25321" lon="6.62465">
        <ele>793.3</ele>
        <time>2022-08-15T17:55:51Z</time>
      </trkpt>
      <trkpt lat="46.25324" lon="6.62449">
        <ele>793.7</ele>
        <time>2022-08-15T17:55:56Z</time>
      </trkpt>
      <trkpt lat="46.25329" lon="6.62435">
        <ele>794.3</ele>
        <time>2022-08-15T17:56:01Z</time>
      </trkpt>
      <trkpt lat="46.25333" lon="6.6242">
        <ele>795.4</ele>
        <time>2022-08-15T17:56:06Z</time>
      </trkpt>
      <trkpt lat="46.25338" lon="6.62407">
        <ele>796.4</ele>
        <time>2022-08-15T17:56:11Z</time>
      </trkpt>
      <trkpt lat="46.25343" lon="6.62392">
        <ele>797.6</ele>
        <time>2022-08-15T17:56:16Z</time>
      </trkpt>
      <trkpt lat="46.25347" lon="6.62376">
        <ele>798.9</ele>
        <time>2022-08-15T17:56:21Z</time>
      </trkpt>
      <trkpt lat="46.25351" lon="6.6236">
        <ele>800.2</ele>
        <time>2022-08-15T17:56:26Z</time>
      </trkpt>
      <trkpt lat="46.25349" lon="6.62342">
        <ele>801.4</ele>
        <time>2022-08-15T17:56:31Z</time>
      </trkpt>
      <trkpt lat="46.25344" lon="6.62326">
        <ele>802.5</ele>
        <time>2022-08-15T17:56:36Z</time>
      </trkpt>
      <trkpt lat="46.25337" lon="6.62311">
        <ele>803.7</ele>
        <time>2022-08-15T17:56:41Z</time>
      </trkpt>
      <trkpt lat="46.25328" lon="6.62297">
        <ele>804.7</ele>
        <time>2022-08-15T17:56:46Z</time>
      </trkpt>
      <trkpt lat="46.25316" lon="6.62287">
        <ele>805.9</ele>
        <time>2022-08-15T17:56:51Z</time>
      </trkpt>
      <trkpt lat="46.25303" lon="6.62285">
        <ele>807</ele>
        <time>2022-08-15T17:56:56Z</time>
      </trkpt>
      <trkpt lat="46.25288" lon="6.62286">
        <ele>808</ele>
        <time>2022-08-15T17:57:01Z</time>
      </trkpt>
      <trkpt lat="46.25274" lon="6.62285">
        <ele>809</ele>
        <time>2022-08-15T17:57:06Z</time>
      </trkpt>
      <trkpt lat="46.2526" lon="6.62282">
        <ele>810.1</ele>
        <time>2022-08-15T17:57:11Z</time>
      </trkpt>
      <trkpt lat="46.25249" lon="6.62274">
        <ele>811.1</ele>
        <time>2022-08-15T17:57:16Z</time>
      </trkpt>
      <trkpt lat="46.25236" lon="6.62268">
        <ele>812.2</ele>
        <time>2022-08-15T17:57:21Z</time>
      </trkpt>
      <trkpt lat="46.2522" lon="6.62262">
        <ele>813.1</ele>
        <time>2022-08-15T17:57:26Z</time>
      </trkpt>
      <trkpt lat="46.25203" lon="6.62256">
        <ele>813.9</ele>
        <time>2022-08-15T17:57:31Z</time>
      </trkpt>
      <trkpt lat="46.25184" lon="6.62243">
        <ele>814.7</ele>
        <time>2022-08-15T17:57:36Z</time>
      </trkpt>
      <trkpt lat="46.25168" lon="6.62226">
        <ele>815.4</ele>
        <time>2022-08-15T17:57:41Z</time>
      </trkpt>
      <trkpt lat="46.25154" lon="6.62208">
        <ele>816.2</ele>
        <time>2022-08-15T17:57:46Z</time>
      </trkpt>
      <trkpt lat="46.25141" lon="6.62186">
        <ele>817.1</ele>
        <time>2022-08-15T17:57:51Z</time>
      </trkpt>
      <trkpt lat="46.25131" lon="6.62162">
        <ele>818</ele>
        <time>2022-08-15T17:57:56Z</time>
      </trkpt>
      <trkpt lat="46.25122" lon="6.62138">
        <ele>818.8</ele>
        <time>2022-08-15T17:58:01Z</time>
      </trkpt>
      <trkpt lat="46.25113" lon="6.62115">
        <ele>819.7</ele>
        <time>2022-08-15T17:58:06Z</time>
      </trkpt>
      <trkpt lat="46.25104" lon="6.62092">
        <ele>820.6</ele>
        <time>2022-08-15T17:58:11Z</time>
      </trkpt>
      <trkpt lat="46.25096" lon="6.62068">
        <ele>821.2</ele>
        <time>2022-08-15T17:58:16Z</time>
      </trkpt>
      <trkpt lat="46.25091" lon="6.62043">
        <ele>822</ele>
        <time>2022-08-15T17:58:21Z</time>
      </trkpt>
      <trkpt lat="46.25086" lon="6.62016">
        <ele>822.8</ele>
        <time>2022-08-15T17:58:26Z</time>
      </trkpt>
      <trkpt lat="46.2508" lon="6.61988">
        <ele>823.5</ele>
        <time>2022-08-15T17:58:31Z</time>
      </trkpt>
      <trkpt lat="46.25072" lon="6.61962">
        <ele>824.2</ele>
        <time>2022-08-15T17:58:36Z</time>
      </trkpt>
      <trkpt lat="46.25065" lon="6.61937">
        <ele>825.1</ele>
        <time>2022-08-15T17:58:41Z</time>
      </trkpt>
      <trkpt lat="46.25065" lon="6.61909">
        <ele>826</ele>
        <time>2022-08-15T17:58:46Z</time>
      </trkpt>
      <trkpt lat="46.25061" lon="6.61882">
        <ele>827.1</ele>
        <time>2022-08-15T17:58:51Z</time>
      </trkpt>
      <trkpt lat="46.25052" lon="6.61859">
        <ele>828.1</ele>
        <time>2022-08-15T17:58:56Z</time>
      </trkpt>
      <trkpt lat="46.25042" lon="6.61838">
        <ele>829</ele>
        <time>2022-08-15T17:59:01Z</time>
      </trkpt>
      <trkpt lat="46.25033" lon="6.61813">
        <ele>830</ele>
        <time>2022-08-15T17:59:06Z</time>
      </trkpt>
      <trkpt lat="46.25025" lon="6.61788">
        <ele>831</ele>
        <time>2022-08-15T17:59:11Z</time>
      </trkpt>
      <trkpt lat="46.25015" lon="6.61764">
        <ele>832</ele>
        <time>2022-08-15T17:59:16Z</time>
      </trkpt>
      <trkpt lat="46.25003" lon="6.61741">
        <ele>833</ele>
        <time>2022-08-15T17:59:21Z</time>
      </trkpt>
      <trkpt lat="46.24993" lon="6.61718">
        <ele>834</ele>
        <time>2022-08-15T17:59:26Z</time>
      </trkpt>
      <trkpt lat="46.24981" lon="6.61694">
        <ele>835</ele>
        <time>2022-08-15T17:59:31Z</time>
      </trkpt>
      <trkpt lat="46.24969" lon="6.61673">
        <ele>835.8</ele>
        <time>2022-08-15T17:59:36Z</time>
      </trkpt>
      <trkpt lat="46.24957" lon="6.61647">
        <ele>836.3</ele>
        <time>2022-08-15T17:59:41Z</time>
      </trkpt>
      <trkpt lat="46.24952" lon="6.61613">
        <ele>836.8</ele>
        <time>2022-08-15T17:59:46Z</time>
      </trkpt>
      <trkpt lat="46.24962" lon="6.61597">
        <ele>838.1</ele>
        <time>2022-08-15T17:59:51Z</time>
      </trkpt>
      <trkpt lat="46.24972" lon="6.61595">
        <ele>839.2</ele>
        <time>2022-08-15T17:59:56Z</time>
      </trkpt>
      <trkpt lat="46.24982" lon="6.61595">
        <ele>840.4</ele>
        <time>2022-08-15T18:00:01Z</time>
      </trkpt>
      <trkpt lat="46.24991" lon="6.61595">
        <ele>841.6</ele>
        <time>2022-08-15T18:00:06Z</time>
      </trkpt>
      <trkpt lat="46.25" lon="6.61595">
        <ele>842.8</ele>
        <time>2022-08-15T18:00:11Z</time>
      </trkpt>
      <trkpt lat="46.2501" lon="6.61599">
        <ele>844.2</ele>
        <time>2022-08-15T18:00:16Z</time>
      </trkpt>
      <trkpt lat="46.2502" lon="6.61606">
        <ele>845.6</ele>
        <time>2022-08-15T18:00:21Z</time>
      </trkpt>
      <trkpt lat="46.25028" lon="6.61613">
        <ele>846.8</ele>
        <time>2022-08-15T18:00:26Z</time>
      </trkpt>
      <trkpt lat="46.25036" lon="6.6162">
        <ele>847.8</ele>
        <time>2022-08-15T18:00:31Z</time>
      </trkpt>
      <trkpt lat="46.25044" lon="6.6163">
        <ele>849</ele>
        <time>2022-08-15T18:00:36Z</time>
      </trkpt>
      <trkpt lat="46.25055" lon="6.61638">
        <ele>850.4</ele>
        <time>2022-08-15T18:00:41Z</time>
      </trkpt>
      <trkpt lat="46.25065" lon="6.61646">
        <ele>851.6</ele>
        <time>2022-08-15T18:00:46Z</time>
      </trkpt>
      <trkpt lat="46.25075" lon="6.61653">
        <ele>852.8</ele>
        <time>2022-08-15T18:00:51Z</time>
      </trkpt>
      <trkpt lat="46.25086" lon="6.6166">
        <ele>854.1</ele>
        <time>2022-08-15T18:00:56Z</time>
      </trkpt>
      <trkpt lat="46.25095" lon="6.61665">
        <ele>855.1</ele>
        <time>2022-08-15T18:01:01Z</time>
      </trkpt>
      <trkpt lat="46.25105" lon="6.61672">
        <ele>856.2</ele>
        <time>2022-08-15T18:01:06Z</time>
      </trkpt>
      <trkpt lat="46.25114" lon="6.6168">
        <ele>857.3</ele>
        <time>2022-08-15T18:01:11Z</time>
      </trkpt>
      <trkpt lat="46.25122" lon="6.61689">
        <ele>858.4</ele>
        <time>2022-08-15T18:01:16Z</time>
      </trkpt>
      <trkpt lat="46.25132" lon="6.61697">
        <ele>859.5</ele>
        <time>2022-08-15T18:01:21Z</time>
      </trkpt>
      <trkpt lat="46.2514" lon="6.61704">
        <ele>860.5</ele>
        <time>2022-08-15T18:01:26Z</time>
      </trkpt>
      <trkpt lat="46.25149" lon="6.61711">
        <ele>861.7</ele>
        <time>2022-08-15T18:01:31Z</time>
      </trkpt>
      <trkpt lat="46.25159" lon="6.61716">
        <ele>863</ele>
        <time>2022-08-15T18:01:36Z</time>
      </trkpt>
      <trkpt lat="46.25169" lon="6.61715">
        <ele>864.3</ele>
        <time>2022-08-15T18:01:41Z</time>
      </trkpt>
      <trkpt lat="46.25171" lon="6.61702">
        <ele>865.7</ele>
        <time>2022-08-15T18:01:46Z</time>
      </trkpt>
      <trkpt lat="46.25166" lon="6.61685">
        <ele>866.8</ele>
        <time>2022-08-15T18:01:51Z</time>
      </trkpt>
      <trkpt lat="46.2516" lon="6.6167">
        <ele>868</ele>
        <time>2022-08-15T18:01:56Z</time>
      </trkpt>
      <trkpt lat="46.25154" lon="6.61655">
        <ele>869</ele>
        <time>2022-08-15T18:02:01Z</time>
      </trkpt>
      <trkpt lat="46.25147" lon="6.61641">
        <ele>870</ele>
        <time>2022-08-15T18:02:06Z</time>
      </trkpt>
      <trkpt lat="46.25141" lon="6.61626">
        <ele>870.8</ele>
        <time>2022-08-15T18:02:11Z</time>
      </trkpt>
      <trkpt lat="46.25135" lon="6.61611">
        <ele>871.7</ele>
        <time>2022-08-15T18:02:16Z</time>
      </trkpt>
      <trkpt lat="46.2513" lon="6.61596">
        <ele>872.7</ele>
        <time>2022-08-15T18:02:21Z</time>
      </trkpt>
      <trkpt lat="46.25123" lon="6.61582">
        <ele>873.7</ele>
        <time>2022-08-15T18:02:26Z</time>
      </trkpt>
      <trkpt lat="46.25115" lon="6.61569">
        <ele>874.7</ele>
        <time>2022-08-15T18:02:31Z</time>
      </trkpt>
      <trkpt lat="46.25107" lon="6.61556">
        <ele>875.7</ele>
        <time>2022-08-15T18:02:36Z</time>
      </trkpt>
      <trkpt lat="46.25098" lon="6.61543">
        <ele>876.9</ele>
        <time>2022-08-15T18:02:41Z</time>
      </trkpt>
      <trkpt lat="46.25088" lon="6.61529">
        <ele>878.2</ele>
        <time>2022-08-15T18:02:46Z</time>
      </trkpt>
      <trkpt lat="46.25081" lon="6.61514">
        <ele>879.8</ele>
        <time>2022-08-15T18:02:51Z</time>
      </trkpt>
      <trkpt lat="46.25078" lon="6.61495">
        <ele>881.6</ele>
        <time>2022-08-15T18:02:56Z</time>
      </trkpt>
      <trkpt lat="46.25087" lon="6.61481">
        <ele>883.3</ele>
        <time>2022-08-15T18:03:01Z</time>
      </trkpt>
      <trkpt lat="46.25099" lon="6.61479">
        <ele>884.7</ele>
        <time>2022-08-15T18:03:06Z</time>
      </trkpt>
      <trkpt lat="46.25112" lon="6.61489">
        <ele>885.8</ele>
        <time>2022-08-15T18:03:11Z</time>
      </trkpt>
      <trkpt lat="46.25123" lon="6.61503">
        <ele>886.5</ele>
        <time>2022-08-15T18:03:16Z</time>
      </trkpt>
      <trkpt lat="46.25135" lon="6.61518">
        <ele>887.1</ele>
        <time>2022-08-15T18:03:21Z</time>
      </trkpt>
      <trkpt lat="46.25145" lon="6.61532">
        <ele>887.8</ele>
        <time>2022-08-15T18:03:26Z</time>
      </trkpt>
      <trkpt lat="46.25155" lon="6.61546">
        <ele>888.6</ele>
        <time>2022-08-15T18:03:31Z</time>
      </trkpt>
      <trkpt lat="46.25164" lon="6.61559">
        <ele>889.4</ele>
        <time>2022-08-15T18:03:36Z</time>
      </trkpt>
      <trkpt lat="46.25174" lon="6.6157">
        <ele>890.3</ele>
        <time>2022-08-15T18:03:41Z</time>
      </trkpt>
      <trkpt lat="46.25183" lon="6.61583">
        <ele>891.2</ele>
        <time>2022-08-15T18:03:46Z</time>
      </trkpt>
      <trkpt lat="46.25192" lon="6.61597">
        <ele>892.3</ele>
        <time>2022-08-15T18:03:51Z</time>
      </trkpt>
      <trkpt lat="46.25203" lon="6.61611">
        <ele>893.3</ele>
        <time>2022-08-15T18:03:56Z</time>
      </trkpt>
      <trkpt lat="46.25213" lon="6.61625">
        <ele>894.4</ele>
        <time>2022-08-15T18:04:01Z</time>
      </trkpt>
      <trkpt lat="46.25223" lon="6.61639">
        <ele>895.7</ele>
        <time>2022-08-15T18:04:06Z</time>
      </trkpt>
      <trkpt lat="46.25234" lon="6.61653">
        <ele>897</ele>
        <time>2022-08-15T18:04:11Z</time>
      </trkpt>
      <trkpt lat="46.25246" lon="6.61666">
        <ele>898.3</ele>
        <time>2022-08-15T18:04:16Z</time>
      </trkpt>
      <trkpt lat="46.25259" lon="6.61677">
        <ele>899.6</ele>
        <time>2022-08-15T18:04:21Z</time>
      </trkpt>
      <trkpt lat="46.25271" lon="6.61688">
        <ele>900.9</ele>
        <time>2022-08-15T18:04:26Z</time>
      </trkpt>
      <trkpt lat="46.25283" lon="6.61697">
        <ele>902.2</ele>
        <time>2022-08-15T18:04:31Z</time>
      </trkpt>
      <trkpt lat="46.25296" lon="6.61705">
        <ele>903.6</ele>
        <time>2022-08-15T18:04:36Z</time>
      </trkpt>
      <trkpt lat="46.25309" lon="6.61715">
        <ele>905.2</ele>
        <time>2022-08-15T18:04:41Z</time>
      </trkpt>
      <trkpt lat="46.25324" lon="6.61721">
        <ele>906.8</ele>
        <time>2022-08-15T18:04:46Z</time>
      </trkpt>
      <trkpt lat="46.25339" lon="6.61724">
        <ele>908.3</ele>
        <time>2022-08-15T18:04:51Z</time>
      </trkpt>
      <trkpt lat="46.25354" lon="6.61724">
        <ele>909.5</ele>
        <time>2022-08-15T18:04:56Z</time>
      </trkpt>
      <trkpt lat="46.2537" lon="6.61724">
        <ele>910.7</ele>
        <time>2022-08-15T18:05:01Z</time>
      </trkpt>
      <trkpt lat="46.25385" lon="6.61726">
        <ele>911.9</ele>
        <time>2022-08-15T18:05:06Z</time>
      </trkpt>
      <trkpt lat="46.254" lon="6.6173">
        <ele>913.2</ele>
        <time>2022-08-15T18:05:11Z</time>
      </trkpt>
      <trkpt lat="46.25415" lon="6.61735">
        <ele>914.5</ele>
        <time>2022-08-15T18:05:16Z</time>
      </trkpt>
      <trkpt lat="46.25429" lon="6.61739">
        <ele>915.7</ele>
        <time>2022-08-15T18:05:21Z</time>
      </trkpt>
      <trkpt lat="46.25443" lon="6.61741">
        <ele>916.9</ele>
        <time>2022-08-15T18:05:26Z</time>
      </trkpt>
      <trkpt lat="46.25458" lon="6.61742">
        <ele>918.1</ele>
        <time>2022-08-15T18:05:31Z</time>
      </trkpt>
      <trkpt lat="46.25473" lon="6.6174">
        <ele>919.3</ele>
        <time>2022-08-15T18:05:36Z</time>
      </trkpt>
      <trkpt lat="46.25488" lon="6.61734">
        <ele>920.7</ele>
        <time>2022-08-15T18:05:41Z</time>
      </trkpt>
      <trkpt lat="46.25502" lon="6.61727">
        <ele>921.9</ele>
        <time>2022-08-15T18:05:46Z</time>
      </trkpt>
      <trkpt lat="46.25515" lon="6.61721">
        <ele>923.1</ele>
        <time>2022-08-15T18:05:51Z</time>
      </trkpt>
      <trkpt lat="46.25527" lon="6.61717">
        <ele>924.2</ele>
        <time>2022-08-15T18:05:56Z</time>
      </trkpt>
      <trkpt lat="46.25542" lon="6.61714">
        <ele>925.5</ele>
        <time>2022-08-15T18:06:01Z</time>
      </trkpt>
      <trkpt lat="46.25558" lon="6.61714">
        <ele>926.8</ele>
        <time>2022-08-15T18:06:06Z</time>
      </trkpt>
      <trkpt lat="46.25572" lon="6.61716">
        <ele>927.9</ele>
        <time>2022-08-15T18:06:11Z</time>
      </trkpt>
      <trkpt lat="46.25586" lon="6.61719">
        <ele>929</ele>
        <time>2022-08-15T18:06:16Z</time>
      </trkpt>
      <trkpt lat="46.25599" lon="6.61724">
        <ele>930.3</ele>
        <time>2022-08-15T18:06:21Z</time>
      </trkpt>
      <trkpt lat="46.25612" lon="6.6173">
        <ele>931.7</ele>
        <time>2022-08-15T18:06:26Z</time>
      </trkpt>
      <trkpt lat="46.25625" lon="6.61738">
        <ele>933.3</ele>
        <time>2022-08-15T18:06:31Z</time>
      </trkpt>
      <trkpt lat="46.25638" lon="6.61746">
        <ele>934.8</ele>
        <time>2022-08-15T18:06:36Z</time>
      </trkpt>
      <trkpt lat="46.25653" lon="6.61751">
        <ele>936.3</ele>
        <time>2022-08-15T18:06:41Z</time>
      </trkpt>
      <trkpt lat="46.25668" lon="6.61753">
        <ele>937.7</ele>
        <time>2022-08-15T18:06:46Z</time>
      </trkpt>
      <trkpt lat="46.25683" lon="6.61752">
        <ele>939.1</ele>
        <time>2022-08-15T18:06:51Z</time>
      </trkpt>
      <trkpt lat="46.25697" lon="6.6175">
        <ele>940.6</ele>
        <time>2022-08-15T18:06:56Z</time>
      </trkpt>
      <trkpt lat="46.25712" lon="6.61748">
        <ele>942.6</ele>
        <time>2022-08-15T18:07:01Z</time>
      </trkpt>
      <trkpt lat="46.25726" lon="6.61746">
        <ele>944.6</ele>
        <time>2022-08-15T18:07:06Z</time>
      </trkpt>
      <trkpt lat="46.2574" lon="6.61744">
        <ele>946.6</ele>
        <time>2022-08-15T18:07:11Z</time>
      </trkpt>
      <trkpt lat="46.25753" lon="6.61742">
        <ele>948.1</ele>
        <time>2022-08-15T18:07:16Z</time>
      </trkpt>
      <trkpt lat="46.25767" lon="6.61739">
        <ele>948.1</ele>
        <time>2022-08-15T18:07:21Z</time>
      </trkpt>
      <trkpt lat="46.25781" lon="6.61737">
        <ele>948.2</ele>
        <time>2022-08-15T18:07:26Z</time>
      </trkpt>
      <trkpt lat="46.25796" lon="6.61734">
        <ele>948.1</ele>
        <time>2022-08-15T18:07:31Z</time>
      </trkpt>
      <trkpt lat="46.2581" lon="6.6173">
        <ele>948.9</ele>
        <time>2022-08-15T18:07:36Z</time>
      </trkpt>
      <trkpt lat="46.25825" lon="6.61727">
        <ele>950.5</ele>
        <time>2022-08-15T18:07:41Z</time>
      </trkpt>
      <trkpt lat="46.2584" lon="6.61726">
        <ele>952.2</ele>
        <time>2022-08-15T18:07:46Z</time>
      </trkpt>
      <trkpt lat="46.25853" lon="6.6172">
        <ele>953.9</ele>
        <time>2022-08-15T18:07:51Z</time>
      </trkpt>
      <trkpt lat="46.25856" lon="6.61705">
        <ele>955.3</ele>
        <time>2022-08-15T18:07:56Z</time>
      </trkpt>
      <trkpt lat="46.25842" lon="6.61697">
        <ele>956.7</ele>
        <time>2022-08-15T18:08:01Z</time>
      </trkpt>
      <trkpt lat="46.25822" lon="6.61698">
        <ele>958.4</ele>
        <time>2022-08-15T18:08:06Z</time>
      </trkpt>
      <trkpt lat="46.25801" lon="6.61696">
        <ele>960.1</ele>
        <time>2022-08-15T18:08:11Z</time>
      </trkpt>
      <trkpt lat="46.25782" lon="6.61685">
        <ele>964.3</ele>
        <time>2022-08-15T18:08:16Z</time>
      </trkpt>
      <trkpt lat="46.25766" lon="6.61669">
        <ele>967.9</ele>
        <time>2022-08-15T18:08:21Z</time>
      </trkpt>
      <trkpt lat="46.25753" lon="6.61653">
        <ele>966.7</ele>
        <time>2022-08-15T18:08:26Z</time>
      </trkpt>
      <trkpt lat="46.25739" lon="6.6164">
        <ele>965.7</ele>
        <time>2022-08-15T18:08:31Z</time>
      </trkpt>
      <trkpt lat="46.25724" lon="6.6163">
        <ele>965.1</ele>
        <time>2022-08-15T18:08:36Z</time>
      </trkpt>
      <trkpt lat="46.25709" lon="6.6162">
        <ele>966.9</ele>
        <time>2022-08-15T18:08:41Z</time>
      </trkpt>
      <trkpt lat="46.25693" lon="6.61609">
        <ele>968.8</ele>
        <time>2022-08-15T18:08:46Z</time>
      </trkpt>
      <trkpt lat="46.25678" lon="6.61593">
        <ele>970.7</ele>
        <time>2022-08-15T18:08:51Z</time>
      </trkpt>
      <trkpt lat="46.25665" lon="6.61576">
        <ele>972.6</ele>
        <time>2022-08-15T18:08:56Z</time>
      </trkpt>
      <trkpt lat="46.25651" lon="6.61562">
        <ele>974.2</ele>
        <time>2022-08-15T18:09:01Z</time>
      </trkpt>
      <trkpt lat="46.25635" lon="6.61549">
        <ele>976.1</ele>
        <time>2022-08-15T18:09:06Z</time>
      </trkpt>
      <trkpt lat="46.25619" lon="6.61536">
        <ele>978.1</ele>
        <time>2022-08-15T18:09:11Z</time>
      </trkpt>
      <trkpt lat="46.25604" lon="6.61526">
        <ele>980</ele>
        <time>2022-08-15T18:09:16Z</time>
      </trkpt>
      <trkpt lat="46.25589" lon="6.61517">
        <ele>980.8</ele>
        <time>2022-08-15T18:09:21Z</time>
      </trkpt>
      <trkpt lat="46.25572" lon="6.61512">
        <ele>980.9</ele>
        <time>2022-08-15T18:09:26Z</time>
      </trkpt>
      <trkpt lat="46.25556" lon="6.61509">
        <ele>981</ele>
        <time>2022-08-15T18:09:31Z</time>
      </trkpt>
      <trkpt lat="46.25542" lon="6.61504">
        <ele>981.1</ele>
        <time>2022-08-15T18:09:36Z</time>
      </trkpt>
      <trkpt lat="46.25527" lon="6.61499">
        <ele>981.1</ele>
        <time>2022-08-15T18:09:41Z</time>
      </trkpt>
      <trkpt lat="46.25513" lon="6.61489">
        <ele>981.1</ele>
        <time>2022-08-15T18:09:46Z</time>
      </trkpt>
      <trkpt lat="46.25499" lon="6.61476">
        <ele>982.4</ele>
        <time>2022-08-15T18:09:51Z</time>
      </trkpt>
      <trkpt lat="46.25485" lon="6.61463">
        <ele>983.9</ele>
        <time>2022-08-15T18:09:56Z</time>
      </trkpt>
      <trkpt lat="46.25472" lon="6.6145">
        <ele>985.4</ele>
        <time>2022-08-15T18:10:01Z</time>
      </trkpt>
      <trkpt lat="46.2546" lon="6.61435">
        <ele>986.9</ele>
        <time>2022-08-15T18:10:06Z</time>
      </trkpt>
      <trkpt lat="46.25449" lon="6.61417">
        <ele>988.4</ele>
        <time>2022-08-15T18:10:11Z</time>
      </trkpt>
      <trkpt lat="46.25438" lon="6.61399">
        <ele>989.9</ele>
        <time>2022-08-15T18:10:16Z</time>
      </trkpt>
      <trkpt lat="46.25427" lon="6.61384">
        <ele>991.3</ele>
        <time>2022-08-15T18:10:21Z</time>
      </trkpt>
      <trkpt lat="46.25414" lon="6.61372">
        <ele>992.9</ele>
        <time>2022-08-15T18:10:26Z</time>
      </trkpt>
      <trkpt lat="46.254" lon="6.61362">
        <ele>994.4</ele>
        <time>2022-08-15T18:10:31Z</time>
      </trkpt>
      <trkpt lat="46.25386" lon="6.61351">
        <ele>996</ele>
        <time>2022-08-15T18:10:36Z</time>
      </trkpt>
      <trkpt lat="46.25373" lon="6.61336">
        <ele>997.5</ele>
        <time>2022-08-15T18:10:41Z</time>
      </trkpt>
      <trkpt lat="46.25365" lon="6.61314">
        <ele>999</ele>
        <time>2022-08-15T18:10:46Z</time>
      </trkpt>
      <trkpt lat="46.25356" lon="6.61292">
        <ele>1000.5</ele>
        <time>2022-08-15T18:10:51Z</time>
      </trkpt>
      <trkpt lat="46.2535" lon="6.6127">
        <ele>1001.9</ele>
        <time>2022-08-15T18:10:56Z</time>
      </trkpt>
      <trkpt lat="46.25344" lon="6.61249">
        <ele>1003.5</ele>
        <time>2022-08-15T18:11:01Z</time>
      </trkpt>
      <trkpt lat="46.25335" lon="6.61227">
        <ele>1005.1</ele>
        <time>2022-08-15T18:11:06Z</time>
      </trkpt>
      <trkpt lat="46.25329" lon="6.61203">
        <ele>1006.7</ele>
        <time>2022-08-15T18:11:11Z</time>
      </trkpt>
      <trkpt lat="46.25323" lon="6.61181">
        <ele>1008.2</ele>
        <time>2022-08-15T18:11:16Z</time>
      </trkpt>
      <trkpt lat="46.25315" lon="6.6116">
        <ele>1009.6</ele>
        <time>2022-08-15T18:11:21Z</time>
      </trkpt>
      <trkpt lat="46.25309" lon="6.61142">
        <ele>1010.8</ele>
        <time>2022-08-15T18:11:26Z</time>
      </trkpt>
      <trkpt lat="46.25302" lon="6.61123">
        <ele>1012.2</ele>
        <time>2022-08-15T18:11:31Z</time>
      </trkpt>
      <trkpt lat="46.25294" lon="6.61102">
        <ele>1013.5</ele>
        <time>2022-08-15T18:11:36Z</time>
      </trkpt>
      <trkpt lat="46.25286" lon="6.61083">
        <ele>1014.7</ele>
        <time>2022-08-15T18:11:41Z</time>
      </trkpt>
      <trkpt lat="46.25279" lon="6.61065">
        <ele>1015.8</ele>
        <time>2022-08-15T18:11:46Z</time>
      </trkpt>
      <trkpt lat="46.2527" lon="6.61046">
        <ele>1016.9</ele>
        <time>2022-08-15T18:11:51Z</time>
      </trkpt>
      <trkpt lat="46.25262" lon="6.61026">
        <ele>1018.1</ele>
        <time>2022-08-15T18:11:56Z</time>
      </trkpt>
      <trkpt lat="46.25252" lon="6.61011">
        <ele>1019.3</ele>
        <time>2022-08-15T18:12:01Z</time>
      </trkpt>
      <trkpt lat="46.25241" lon="6.61">
        <ele>1020.4</ele>
        <time>2022-08-15T18:12:06Z</time>
      </trkpt>
      <trkpt lat="46.25228" lon="6.60993">
        <ele>1021.5</ele>
        <time>2022-08-15T18:12:11Z</time>
      </trkpt>
      <trkpt lat="46.25213" lon="6.60986">
        <ele>1022.8</ele>
        <time>2022-08-15T18:12:16Z</time>
      </trkpt>
      <trkpt lat="46.25199" lon="6.60979">
        <ele>1024</ele>
        <time>2022-08-15T18:12:21Z</time>
      </trkpt>
      <trkpt lat="46.25185" lon="6.60968">
        <ele>1025.3</ele>
        <time>2022-08-15T18:12:26Z</time>
      </trkpt>
      <trkpt lat="46.25173" lon="6.60955">
        <ele>1026.3</ele>
        <time>2022-08-15T18:12:31Z</time>
      </trkpt>
      <trkpt lat="46.25161" lon="6.60939">
        <ele>1027.9</ele>
        <time>2022-08-15T18:12:36Z</time>
      </trkpt>
      <trkpt lat="46.2515" lon="6.60923">
        <ele>1029.6</ele>
        <time>2022-08-15T18:12:41Z</time>
      </trkpt>
      <trkpt lat="46.25141" lon="6.60904">
        <ele>1031.2</ele>
        <time>2022-08-15T18:12:46Z</time>
      </trkpt>
      <trkpt lat="46.25131" lon="6.60886">
        <ele>1032.6</ele>
        <time>2022-08-15T18:12:51Z</time>
      </trkpt>
      <trkpt lat="46.25123" lon="6.60868">
        <ele>1033.9</ele>
        <time>2022-08-15T18:12:56Z</time>
      </trkpt>
      <trkpt lat="46.25125" lon="6.60856">
        <ele>1034.6</ele>
        <time>2022-08-15T18:13:01Z</time>
      </trkpt>
    </trkseg>
  </trk>
</gpx>